<?xml version="1.0" encoding="UTF-8"?><gpx creator="Wikiloc - http://www.wikiloc.com" version="1.1" xmlns="http://www.topografix.com/GPX/1/1" xmlns:xsi="http://www.w3.org/2001/XMLSchema-instance" xsi:schemaLocation="http://www.topografix.com/GPX/1/1 http://www.topografix.com/GPX/1/1/gpx.xsd"><wpt lat="42.950274" lon="-2.354889"><ele>1210.3</ele><time>2015-07-29T09:39:28Z</time><name>Artzanasi 1.220 m</name><cmt></cmt><desc></desc></wpt><wpt lat="42.920624" lon="-2.370497"><ele>712.9</ele><time>2015-07-29T06:57:52Z</time><name>Borda Gordoa</name><cmt></cmt><desc></desc></wpt><wpt lat="42.940139" lon="-2.340909"><ele>1277.8</ele><time>2015-07-29T10:33:23Z</time><name>Burgalaitz 1.283 m</name><cmt></cmt><desc></desc></wpt><wpt lat="42.910299" lon="-2.362572"><ele>723.1</ele><time>2015-07-29T06:28:39Z</time><name>Depósito de agua</name><cmt></cmt><desc></desc></wpt><wpt lat="42.946864" lon="-2.352330"><ele>1157.5</ele><time>2015-07-29T09:50:27Z</time><name>Dolmen Pagarreta</name><cmt></cmt><desc></desc></wpt><wpt lat="42.910453" lon="-2.360036"><ele>655.3</ele><time>2015-07-29T12:02:04Z</time><name>Erreka Estibarri</name><cmt></cmt><desc></desc></wpt><wpt lat="42.906383" lon="-2.363127"><ele>680.5</ele><time>2015-07-29T18:44:45Z</time><name>Fin recorrido</name><cmt></cmt><desc></desc></wpt><wpt lat="42.913634" lon="-2.364657"><ele>686.2</ele><time>2015-07-29T06:35:15Z</time><name>Giro izq.</name><cmt></cmt><desc></desc></wpt><wpt lat="42.906329" lon="-2.363244"><ele>681.4</ele><time>2015-07-29T18:44:24Z</time><name>Inicio recorrido</name><cmt></cmt><desc></desc></wpt><wpt lat="42.941735" lon="-2.365412"><ele>1246.4</ele><time>2015-07-29T08:39:38Z</time><name>Malkorra 1.242 m</name><cmt></cmt><desc></desc></wpt><wpt lat="42.946269" lon="-2.352088"><ele>1158.4</ele><time>2015-07-29T09:52:31Z</time><name>Monolito Pagarreta II</name><cmt></cmt><desc></desc></wpt><wpt lat="42.946856" lon="-2.362724"><ele>1238.3</ele><time>2015-07-29T09:15:30Z</time><name>Oburu 1.240 m</name><cmt></cmt><desc></desc></wpt><wpt lat="42.936626" lon="-2.341792"><ele>1235.6</ele><time>2015-07-29T10:55:51Z</time><name>Onbakutz 1.225 m</name><cmt></cmt><desc></desc></wpt><wpt lat="42.922146" lon="-2.369850"><ele>711.0</ele><time>2015-07-29T20:10:40Z</time><name>Paso erreka Malkorra</name><cmt></cmt><desc></desc></wpt><wpt lat="42.932177" lon="-2.372346"><ele>770.4</ele><time>2015-07-29T07:23:39Z</time><name>Paso langa</name><cmt></cmt><desc></desc></wpt><wpt lat="42.941199" lon="-2.367161"><ele>1197.2</ele><time>2015-07-29T08:29:06Z</time><name>Paso valla</name><cmt></cmt><desc></desc></wpt><wpt lat="42.939848" lon="-2.348730"><ele>1275.0</ele><time>2015-07-29T10:10:46Z</time><name>Milpiribil o Pinpil 1.296 m</name><cmt></cmt><desc></desc></wpt><wpt lat="42.914156" lon="-2.371729"><ele>701.3</ele><time>2015-07-29T06:44:50Z</time><name>Poste indicador 1</name><cmt></cmt><desc></desc></wpt><wpt lat="42.948404" lon="-2.358154"><ele>1162.3</ele><time>2015-07-29T09:27:59Z</time><name>Poste indicador 2</name><cmt></cmt><desc></desc></wpt><wpt lat="42.924398" lon="-2.350501"><ele>841.4</ele><time>2015-07-29T11:31:19Z</time><name>Roble con interes</name><cmt></cmt><desc></desc></wpt><trk><name>20150729 Circ.Galarreta-Malkorra-Oburu-Artzanasi-Pinpil-Burg...</name><cmt></cmt><desc></desc><trkseg><trkpt lat="42.906326" lon="-2.363233"><ele>681.2</ele><time>2015-07-29T06:20:30Z</time></trkpt><trkpt lat="42.906364" lon="-2.363220"><ele>681.2</ele><time>2015-07-29T06:20:55Z</time></trkpt><trkpt lat="42.906387" lon="-2.363202"><ele>681.2</ele><time>2015-07-29T06:20:56Z</time></trkpt><trkpt lat="42.906426" lon="-2.363176"><ele>682.2</ele><time>2015-07-29T06:21:05Z</time></trkpt><trkpt lat="42.906511" lon="-2.363109"><ele>680.8</ele><time>2015-07-29T06:21:15Z</time></trkpt><trkpt lat="42.906566" lon="-2.363046"><ele>677.9</ele><time>2015-07-29T06:21:28Z</time></trkpt><trkpt lat="42.906612" lon="-2.363018"><ele>678.8</ele><time>2015-07-29T06:21:41Z</time></trkpt><trkpt lat="42.906746" lon="-2.362955"><ele>680.8</ele><time>2015-07-29T06:21:56Z</time></trkpt><trkpt lat="42.906904" lon="-2.362926"><ele>684.1</ele><time>2015-07-29T06:22:12Z</time></trkpt><trkpt lat="42.907030" lon="-2.362942"><ele>685.1</ele><time>2015-07-29T06:22:27Z</time></trkpt><trkpt lat="42.907184" lon="-2.362966"><ele>687.5</ele><time>2015-07-29T06:22:44Z</time></trkpt><trkpt lat="42.907310" lon="-2.362976"><ele>689.4</ele><time>2015-07-29T06:22:58Z</time></trkpt><trkpt lat="42.907429" lon="-2.363007"><ele>691.8</ele><time>2015-07-29T06:23:12Z</time></trkpt><trkpt lat="42.907570" lon="-2.363037"><ele>694.2</ele><time>2015-07-29T06:23:27Z</time></trkpt><trkpt lat="42.907665" lon="-2.363055"><ele>695.7</ele><time>2015-07-29T06:23:38Z</time></trkpt><trkpt lat="42.907782" lon="-2.363072"><ele>698.1</ele><time>2015-07-29T06:23:51Z</time></trkpt><trkpt lat="42.907905" lon="-2.363064"><ele>699.5</ele><time>2015-07-29T06:24:05Z</time></trkpt><trkpt lat="42.907981" lon="-2.363043"><ele>699.5</ele><time>2015-07-29T06:24:06Z</time></trkpt><trkpt lat="42.908055" lon="-2.363016"><ele>700.5</ele><time>2015-07-29T06:24:21Z</time></trkpt><trkpt lat="42.908184" lon="-2.362946"><ele>700.9</ele><time>2015-07-29T06:24:35Z</time></trkpt><trkpt lat="42.908372" lon="-2.362848"><ele>701.4</ele><time>2015-07-29T06:24:55Z</time></trkpt><trkpt lat="42.908515" lon="-2.362771"><ele>702.9</ele><time>2015-07-29T06:25:11Z</time></trkpt><trkpt lat="42.908677" lon="-2.362693"><ele>703.8</ele><time>2015-07-29T06:25:28Z</time></trkpt><trkpt lat="42.908834" lon="-2.362622"><ele>704.8</ele><time>2015-07-29T06:25:45Z</time></trkpt><trkpt lat="42.908991" lon="-2.362554"><ele>707.2</ele><time>2015-07-29T06:26:04Z</time></trkpt><trkpt lat="42.909132" lon="-2.362505"><ele>710.6</ele><time>2015-07-29T06:26:20Z</time></trkpt><trkpt lat="42.909260" lon="-2.362486"><ele>712.5</ele><time>2015-07-29T06:26:35Z</time></trkpt><trkpt lat="42.909392" lon="-2.362507"><ele>714.9</ele><time>2015-07-29T06:26:51Z</time></trkpt><trkpt lat="42.909522" lon="-2.362499"><ele>716.3</ele><time>2015-07-29T06:27:06Z</time></trkpt><trkpt lat="42.909640" lon="-2.362480"><ele>717.8</ele><time>2015-07-29T06:27:19Z</time></trkpt><trkpt lat="42.909800" lon="-2.362492"><ele>720.2</ele><time>2015-07-29T06:27:36Z</time></trkpt><trkpt lat="42.909921" lon="-2.362499"><ele>722.1</ele><time>2015-07-29T06:27:49Z</time></trkpt><trkpt lat="42.910050" lon="-2.362504"><ele>724.0</ele><time>2015-07-29T06:28:04Z</time></trkpt><trkpt lat="42.910149" lon="-2.362490"><ele>723.5</ele><time>2015-07-29T06:28:18Z</time></trkpt><trkpt lat="42.910261" lon="-2.362533"><ele>722.6</ele><time>2015-07-29T06:28:34Z</time></trkpt><trkpt lat="42.910297" lon="-2.362587"><ele>724.0</ele><time>2015-07-29T06:28:52Z</time></trkpt><trkpt lat="42.910350" lon="-2.362646"><ele>723.5</ele><time>2015-07-29T06:28:55Z</time></trkpt><trkpt lat="42.910406" lon="-2.362703"><ele>724.0</ele><time>2015-07-29T06:28:59Z</time></trkpt><trkpt lat="42.910488" lon="-2.362785"><ele>726.9</ele><time>2015-07-29T06:29:19Z</time></trkpt><trkpt lat="42.910629" lon="-2.362926"><ele>726.9</ele><time>2015-07-29T06:29:37Z</time></trkpt><trkpt lat="42.910752" lon="-2.363019"><ele>724.0</ele><time>2015-07-29T06:29:50Z</time></trkpt><trkpt lat="42.910810" lon="-2.363078"><ele>722.6</ele><time>2015-07-29T06:29:57Z</time></trkpt><trkpt lat="42.910912" lon="-2.363226"><ele>721.6</ele><time>2015-07-29T06:30:12Z</time></trkpt><trkpt lat="42.911044" lon="-2.363395"><ele>719.2</ele><time>2015-07-29T06:30:30Z</time></trkpt><trkpt lat="42.911170" lon="-2.363532"><ele>716.3</ele><time>2015-07-29T06:30:46Z</time></trkpt><trkpt lat="42.911317" lon="-2.363631"><ele>713.0</ele><time>2015-07-29T06:31:04Z</time></trkpt><trkpt lat="42.911325" lon="-2.363630"><ele>713.0</ele><time>2015-07-29T06:31:05Z</time></trkpt><trkpt lat="42.911492" lon="-2.363619"><ele>711.0</ele><time>2015-07-29T06:31:22Z</time></trkpt><trkpt lat="42.911658" lon="-2.363678"><ele>713.4</ele><time>2015-07-29T06:31:40Z</time></trkpt><trkpt lat="42.911748" lon="-2.363779"><ele>713.0</ele><time>2015-07-29T06:31:58Z</time></trkpt><trkpt lat="42.911807" lon="-2.363852"><ele>713.4</ele><time>2015-07-29T06:31:59Z</time></trkpt><trkpt lat="42.911885" lon="-2.363950"><ele>713.4</ele><time>2015-07-29T06:32:01Z</time></trkpt><trkpt lat="42.911998" lon="-2.364074"><ele>713.4</ele><time>2015-07-29T06:32:22Z</time></trkpt><trkpt lat="42.912169" lon="-2.364227"><ele>711.0</ele><time>2015-07-29T06:32:41Z</time></trkpt><trkpt lat="42.912316" lon="-2.364372"><ele>708.6</ele><time>2015-07-29T06:32:57Z</time></trkpt><trkpt lat="42.912455" lon="-2.364516"><ele>707.2</ele><time>2015-07-29T06:33:14Z</time></trkpt><trkpt lat="42.912638" lon="-2.364668"><ele>703.8</ele><time>2015-07-29T06:33:33Z</time></trkpt><trkpt lat="42.912778" lon="-2.364679"><ele>699.5</ele><time>2015-07-29T06:33:48Z</time></trkpt><trkpt lat="42.912971" lon="-2.364715"><ele>700.0</ele><time>2015-07-29T06:34:05Z</time></trkpt><trkpt lat="42.913128" lon="-2.364689"><ele>696.6</ele><time>2015-07-29T06:34:21Z</time></trkpt><trkpt lat="42.913293" lon="-2.364685"><ele>693.7</ele><time>2015-07-29T06:34:36Z</time></trkpt><trkpt lat="42.913470" lon="-2.364648"><ele>689.4</ele><time>2015-07-29T06:34:51Z</time></trkpt><trkpt lat="42.913613" lon="-2.364635"><ele>686.0</ele><time>2015-07-29T06:35:12Z</time></trkpt><trkpt lat="42.913668" lon="-2.364683"><ele>688.9</ele><time>2015-07-29T06:35:26Z</time></trkpt><trkpt lat="42.913724" lon="-2.364792"><ele>690.8</ele><time>2015-07-29T06:35:38Z</time></trkpt><trkpt lat="42.913748" lon="-2.364816"><ele>691.3</ele><time>2015-07-29T06:35:41Z</time></trkpt><trkpt lat="42.913808" lon="-2.364928"><ele>691.3</ele><time>2015-07-29T06:35:51Z</time></trkpt><trkpt lat="42.913866" lon="-2.365044"><ele>691.8</ele><time>2015-07-29T06:35:59Z</time></trkpt><trkpt lat="42.913994" lon="-2.365191"><ele>692.8</ele><time>2015-07-29T06:36:14Z</time></trkpt><trkpt lat="42.914003" lon="-2.365203"><ele>692.8</ele><time>2015-07-29T06:36:15Z</time></trkpt><trkpt lat="42.914028" lon="-2.365315"><ele>691.3</ele><time>2015-07-29T06:36:22Z</time></trkpt><trkpt lat="42.914058" lon="-2.365408"><ele>688.9</ele><time>2015-07-29T06:36:28Z</time></trkpt><trkpt lat="42.914110" lon="-2.365597"><ele>685.6</ele><time>2015-07-29T06:36:43Z</time></trkpt><trkpt lat="42.914113" lon="-2.365614"><ele>685.1</ele><time>2015-07-29T06:36:44Z</time></trkpt><trkpt lat="42.914141" lon="-2.365820"><ele>681.2</ele><time>2015-07-29T06:36:59Z</time></trkpt><trkpt lat="42.914172" lon="-2.366006"><ele>679.8</ele><time>2015-07-29T06:37:11Z</time></trkpt><trkpt lat="42.914209" lon="-2.366176"><ele>677.9</ele><time>2015-07-29T06:37:25Z</time></trkpt><trkpt lat="42.914235" lon="-2.366373"><ele>680.8</ele><time>2015-07-29T06:37:37Z</time></trkpt><trkpt lat="42.914258" lon="-2.366642"><ele>687.0</ele><time>2015-07-29T06:37:53Z</time></trkpt><trkpt lat="42.914293" lon="-2.366777"><ele>687.5</ele><time>2015-07-29T06:38:03Z</time></trkpt><trkpt lat="42.914320" lon="-2.366948"><ele>684.6</ele><time>2015-07-29T06:38:17Z</time></trkpt><trkpt lat="42.914270" lon="-2.367056"><ele>682.7</ele><time>2015-07-29T06:38:30Z</time></trkpt><trkpt lat="42.914232" lon="-2.367239"><ele>689.9</ele><time>2015-07-29T06:38:45Z</time></trkpt><trkpt lat="42.914252" lon="-2.367378"><ele>695.7</ele><time>2015-07-29T06:38:59Z</time></trkpt><trkpt lat="42.914265" lon="-2.367422"><ele>697.1</ele><time>2015-07-29T06:39:03Z</time></trkpt><trkpt lat="42.914300" lon="-2.367607"><ele>696.6</ele><time>2015-07-29T06:39:20Z</time></trkpt><trkpt lat="42.914331" lon="-2.367745"><ele>695.2</ele><time>2015-07-29T06:39:36Z</time></trkpt><trkpt lat="42.914369" lon="-2.368000"><ele>689.9</ele><time>2015-07-29T06:39:53Z</time></trkpt><trkpt lat="42.914384" lon="-2.368065"><ele>688.9</ele><time>2015-07-29T06:39:57Z</time></trkpt><trkpt lat="42.914389" lon="-2.368135"><ele>688.9</ele><time>2015-07-29T06:40:01Z</time></trkpt><trkpt lat="42.914416" lon="-2.368339"><ele>685.6</ele><time>2015-07-29T06:40:15Z</time></trkpt><trkpt lat="42.914433" lon="-2.368488"><ele>678.4</ele><time>2015-07-29T06:40:29Z</time></trkpt><trkpt lat="42.914464" lon="-2.368660"><ele>674.0</ele><time>2015-07-29T06:40:42Z</time></trkpt><trkpt lat="42.914478" lon="-2.368873"><ele>667.8</ele><time>2015-07-29T06:40:58Z</time></trkpt><trkpt lat="42.914477" lon="-2.368922"><ele>666.8</ele><time>2015-07-29T06:41:02Z</time></trkpt><trkpt lat="42.914476" lon="-2.369048"><ele>667.8</ele><time>2015-07-29T06:41:10Z</time></trkpt><trkpt lat="42.914472" lon="-2.369316"><ele>674.5</ele><time>2015-07-29T06:41:26Z</time></trkpt><trkpt lat="42.914458" lon="-2.369505"><ele>681.2</ele><time>2015-07-29T06:41:38Z</time></trkpt><trkpt lat="42.914393" lon="-2.369707"><ele>684.6</ele><time>2015-07-29T06:41:51Z</time></trkpt><trkpt lat="42.914326" lon="-2.369957"><ele>690.4</ele><time>2015-07-29T06:42:07Z</time></trkpt><trkpt lat="42.914309" lon="-2.370157"><ele>693.7</ele><time>2015-07-29T06:42:23Z</time></trkpt><trkpt lat="42.914306" lon="-2.370381"><ele>694.2</ele><time>2015-07-29T06:42:40Z</time></trkpt><trkpt lat="42.914308" lon="-2.370538"><ele>693.7</ele><time>2015-07-29T06:42:53Z</time></trkpt><trkpt lat="42.914277" lon="-2.370741"><ele>694.2</ele><time>2015-07-29T06:43:08Z</time></trkpt><trkpt lat="42.914263" lon="-2.370825"><ele>695.2</ele><time>2015-07-29T06:43:14Z</time></trkpt><trkpt lat="42.914269" lon="-2.371030"><ele>699.5</ele><time>2015-07-29T06:43:30Z</time></trkpt><trkpt lat="42.914235" lon="-2.371220"><ele>701.9</ele><time>2015-07-29T06:43:47Z</time></trkpt><trkpt lat="42.914196" lon="-2.371385"><ele>701.9</ele><time>2015-07-29T06:44:01Z</time></trkpt><trkpt lat="42.914157" lon="-2.371627"><ele>701.9</ele><time>2015-07-29T06:44:18Z</time></trkpt><trkpt lat="42.914133" lon="-2.371718"><ele>702.4</ele><time>2015-07-29T06:44:31Z</time></trkpt><trkpt lat="42.914155" lon="-2.371728"><ele>701.4</ele><time>2015-07-29T06:44:51Z</time></trkpt><trkpt lat="42.914183" lon="-2.371696"><ele>699.0</ele><time>2015-07-29T06:45:18Z</time></trkpt><trkpt lat="42.914216" lon="-2.371693"><ele>698.5</ele><time>2015-07-29T06:45:42Z</time></trkpt><trkpt lat="42.914286" lon="-2.371778"><ele>698.1</ele><time>2015-07-29T06:45:46Z</time></trkpt><trkpt lat="42.914344" lon="-2.371847"><ele>694.7</ele><time>2015-07-29T06:46:06Z</time></trkpt><trkpt lat="42.914443" lon="-2.371968"><ele>693.3</ele><time>2015-07-29T06:46:22Z</time></trkpt><trkpt lat="42.914567" lon="-2.372106"><ele>690.8</ele><time>2015-07-29T06:46:39Z</time></trkpt><trkpt lat="42.914694" lon="-2.372235"><ele>687.5</ele><time>2015-07-29T06:46:55Z</time></trkpt><trkpt lat="42.914759" lon="-2.372304"><ele>686.5</ele><time>2015-07-29T06:47:04Z</time></trkpt><trkpt lat="42.914793" lon="-2.372323"><ele>685.6</ele><time>2015-07-29T06:47:08Z</time></trkpt><trkpt lat="42.914938" lon="-2.372466"><ele>683.6</ele><time>2015-07-29T06:47:26Z</time></trkpt><trkpt lat="42.915016" lon="-2.372535"><ele>682.2</ele><time>2015-07-29T06:47:35Z</time></trkpt><trkpt lat="42.915092" lon="-2.372580"><ele>681.2</ele><time>2015-07-29T06:47:43Z</time></trkpt><trkpt lat="42.915304" lon="-2.372693"><ele>679.3</ele><time>2015-07-29T06:48:03Z</time></trkpt><trkpt lat="42.915494" lon="-2.372686"><ele>675.9</ele><time>2015-07-29T06:48:21Z</time></trkpt><trkpt lat="42.915529" lon="-2.372657"><ele>675.0</ele><time>2015-07-29T06:48:25Z</time></trkpt><trkpt lat="42.915614" lon="-2.372613"><ele>674.0</ele><time>2015-07-29T06:48:34Z</time></trkpt><trkpt lat="42.915739" lon="-2.372471"><ele>671.6</ele><time>2015-07-29T06:48:49Z</time></trkpt><trkpt lat="42.915762" lon="-2.372439"><ele>671.1</ele><time>2015-07-29T06:48:52Z</time></trkpt><trkpt lat="42.915871" lon="-2.372275"><ele>670.7</ele><time>2015-07-29T06:49:08Z</time></trkpt><trkpt lat="42.916016" lon="-2.372124"><ele>674.0</ele><time>2015-07-29T06:49:24Z</time></trkpt><trkpt lat="42.916053" lon="-2.372058"><ele>674.5</ele><time>2015-07-29T06:49:29Z</time></trkpt><trkpt lat="42.916159" lon="-2.371877"><ele>675.5</ele><time>2015-07-29T06:49:45Z</time></trkpt><trkpt lat="42.916252" lon="-2.371724"><ele>674.5</ele><time>2015-07-29T06:49:59Z</time></trkpt><trkpt lat="42.916371" lon="-2.371527"><ele>673.1</ele><time>2015-07-29T06:50:16Z</time></trkpt><trkpt lat="42.916409" lon="-2.371477"><ele>672.1</ele><time>2015-07-29T06:50:20Z</time></trkpt><trkpt lat="42.916526" lon="-2.371360"><ele>672.6</ele><time>2015-07-29T06:50:32Z</time></trkpt><trkpt lat="42.916740" lon="-2.371243"><ele>674.5</ele><time>2015-07-29T06:50:53Z</time></trkpt><trkpt lat="42.916927" lon="-2.371195"><ele>674.0</ele><time>2015-07-29T06:51:12Z</time></trkpt><trkpt lat="42.917106" lon="-2.371164"><ele>678.8</ele><time>2015-07-29T06:51:29Z</time></trkpt><trkpt lat="42.917261" lon="-2.371169"><ele>683.2</ele><time>2015-07-29T06:51:44Z</time></trkpt><trkpt lat="42.917436" lon="-2.371204"><ele>686.0</ele><time>2015-07-29T06:52:01Z</time></trkpt><trkpt lat="42.917579" lon="-2.371239"><ele>687.5</ele><time>2015-07-29T06:52:16Z</time></trkpt><trkpt lat="42.917717" lon="-2.371278"><ele>688.9</ele><time>2015-07-29T06:52:30Z</time></trkpt><trkpt lat="42.917885" lon="-2.371322"><ele>688.9</ele><time>2015-07-29T06:52:46Z</time></trkpt><trkpt lat="42.918068" lon="-2.371361"><ele>689.4</ele><time>2015-07-29T06:53:02Z</time></trkpt><trkpt lat="42.918205" lon="-2.371346"><ele>690.4</ele><time>2015-07-29T06:53:16Z</time></trkpt><trkpt lat="42.918356" lon="-2.371295"><ele>691.3</ele><time>2015-07-29T06:53:30Z</time></trkpt><trkpt lat="42.918524" lon="-2.371245"><ele>690.8</ele><time>2015-07-29T06:53:46Z</time></trkpt><trkpt lat="42.918691" lon="-2.371204"><ele>691.3</ele><time>2015-07-29T06:54:02Z</time></trkpt><trkpt lat="42.918848" lon="-2.371136"><ele>692.3</ele><time>2015-07-29T06:54:18Z</time></trkpt><trkpt lat="42.918982" lon="-2.371088"><ele>692.8</ele><time>2015-07-29T06:54:33Z</time></trkpt><trkpt lat="42.919129" lon="-2.371038"><ele>693.3</ele><time>2015-07-29T06:54:47Z</time></trkpt><trkpt lat="42.919266" lon="-2.370985"><ele>693.3</ele><time>2015-07-29T06:55:01Z</time></trkpt><trkpt lat="42.919412" lon="-2.370921"><ele>693.7</ele><time>2015-07-29T06:55:16Z</time></trkpt><trkpt lat="42.919554" lon="-2.370836"><ele>693.3</ele><time>2015-07-29T06:55:31Z</time></trkpt><trkpt lat="42.919661" lon="-2.370789"><ele>693.7</ele><time>2015-07-29T06:55:44Z</time></trkpt><trkpt lat="42.919787" lon="-2.370745"><ele>696.1</ele><time>2015-07-29T06:55:57Z</time></trkpt><trkpt lat="42.919940" lon="-2.370710"><ele>698.5</ele><time>2015-07-29T06:56:13Z</time></trkpt><trkpt lat="42.920022" lon="-2.370674"><ele>699.0</ele><time>2015-07-29T06:56:25Z</time></trkpt><trkpt lat="42.920134" lon="-2.370607"><ele>701.4</ele><time>2015-07-29T06:56:39Z</time></trkpt><trkpt lat="42.920220" lon="-2.370569"><ele>705.3</ele><time>2015-07-29T06:56:52Z</time></trkpt><trkpt lat="42.920346" lon="-2.370524"><ele>709.6</ele><time>2015-07-29T06:57:08Z</time></trkpt><trkpt lat="42.920450" lon="-2.370536"><ele>711.5</ele><time>2015-07-29T06:57:21Z</time></trkpt><trkpt lat="42.920553" lon="-2.370483"><ele>713.0</ele><time>2015-07-29T06:57:35Z</time></trkpt><trkpt lat="42.920628" lon="-2.370499"><ele>713.4</ele><time>2015-07-29T06:57:54Z</time></trkpt><trkpt lat="42.920708" lon="-2.370506"><ele>717.3</ele><time>2015-07-29T06:58:18Z</time></trkpt><trkpt lat="42.920847" lon="-2.370465"><ele>719.7</ele><time>2015-07-29T06:58:34Z</time></trkpt><trkpt lat="42.920950" lon="-2.370411"><ele>720.7</ele><time>2015-07-29T06:58:51Z</time></trkpt><trkpt lat="42.921010" lon="-2.370392"><ele>720.2</ele><time>2015-07-29T06:59:07Z</time></trkpt><trkpt lat="42.921079" lon="-2.370352"><ele>719.7</ele><time>2015-07-29T06:59:18Z</time></trkpt><trkpt lat="42.921145" lon="-2.370338"><ele>719.7</ele><time>2015-07-29T06:59:32Z</time></trkpt><trkpt lat="42.921188" lon="-2.370352"><ele>719.7</ele><time>2015-07-29T06:59:35Z</time></trkpt><trkpt lat="42.921322" lon="-2.370393"><ele>719.7</ele><time>2015-07-29T06:59:51Z</time></trkpt><trkpt lat="42.921487" lon="-2.370311"><ele>718.7</ele><time>2015-07-29T07:00:08Z</time></trkpt><trkpt lat="42.921640" lon="-2.370221"><ele>718.2</ele><time>2015-07-29T07:00:22Z</time></trkpt><trkpt lat="42.921784" lon="-2.370160"><ele>715.4</ele><time>2015-07-29T07:00:37Z</time></trkpt><trkpt lat="42.921841" lon="-2.370136"><ele>713.4</ele><time>2015-07-29T07:00:42Z</time></trkpt><trkpt lat="42.921949" lon="-2.370022"><ele>709.1</ele><time>2015-07-29T07:00:55Z</time></trkpt><trkpt lat="42.922061" lon="-2.369885"><ele>705.8</ele><time>2015-07-29T07:01:11Z</time></trkpt><trkpt lat="42.922183" lon="-2.369846"><ele>705.8</ele><time>2015-07-29T07:01:26Z</time></trkpt><trkpt lat="42.922247" lon="-2.369891"><ele>710.6</ele><time>2015-07-29T07:01:40Z</time></trkpt><trkpt lat="42.922328" lon="-2.369956"><ele>712.0</ele><time>2015-07-29T07:01:56Z</time></trkpt><trkpt lat="42.922374" lon="-2.370054"><ele>712.5</ele><time>2015-07-29T07:02:10Z</time></trkpt><trkpt lat="42.922410" lon="-2.370199"><ele>714.9</ele><time>2015-07-29T07:02:23Z</time></trkpt><trkpt lat="42.922486" lon="-2.370358"><ele>715.4</ele><time>2015-07-29T07:02:38Z</time></trkpt><trkpt lat="42.922579" lon="-2.370483"><ele>716.8</ele><time>2015-07-29T07:02:54Z</time></trkpt><trkpt lat="42.922641" lon="-2.370587"><ele>718.7</ele><time>2015-07-29T07:03:05Z</time></trkpt><trkpt lat="42.922781" lon="-2.370623"><ele>716.8</ele><time>2015-07-29T07:03:21Z</time></trkpt><trkpt lat="42.922911" lon="-2.370604"><ele>717.3</ele><time>2015-07-29T07:03:35Z</time></trkpt><trkpt lat="42.923048" lon="-2.370578"><ele>715.4</ele><time>2015-07-29T07:03:48Z</time></trkpt><trkpt lat="42.923070" lon="-2.370570"><ele>715.4</ele><time>2015-07-29T07:03:50Z</time></trkpt><trkpt lat="42.923236" lon="-2.370491"><ele>717.3</ele><time>2015-07-29T07:04:07Z</time></trkpt><trkpt lat="42.923408" lon="-2.370400"><ele>719.7</ele><time>2015-07-29T07:04:26Z</time></trkpt><trkpt lat="42.923543" lon="-2.370216"><ele>721.1</ele><time>2015-07-29T07:04:46Z</time></trkpt><trkpt lat="42.923552" lon="-2.370197"><ele>721.6</ele><time>2015-07-29T07:04:48Z</time></trkpt><trkpt lat="42.923619" lon="-2.370026"><ele>726.4</ele><time>2015-07-29T07:05:03Z</time></trkpt><trkpt lat="42.923711" lon="-2.369829"><ele>730.3</ele><time>2015-07-29T07:05:20Z</time></trkpt><trkpt lat="42.923786" lon="-2.369669"><ele>729.3</ele><time>2015-07-29T07:05:35Z</time></trkpt><trkpt lat="42.923897" lon="-2.369560"><ele>729.3</ele><time>2015-07-29T07:05:51Z</time></trkpt><trkpt lat="42.923920" lon="-2.369544"><ele>729.3</ele><time>2015-07-29T07:05:54Z</time></trkpt><trkpt lat="42.923961" lon="-2.369525"><ele>729.8</ele><time>2015-07-29T07:05:58Z</time></trkpt><trkpt lat="42.924026" lon="-2.369482"><ele>727.9</ele><time>2015-07-29T07:06:05Z</time></trkpt><trkpt lat="42.924125" lon="-2.369402"><ele>726.9</ele><time>2015-07-29T07:06:15Z</time></trkpt><trkpt lat="42.924260" lon="-2.369343"><ele>727.4</ele><time>2015-07-29T07:06:31Z</time></trkpt><trkpt lat="42.924402" lon="-2.369257"><ele>724.0</ele><time>2015-07-29T07:06:46Z</time></trkpt><trkpt lat="42.924436" lon="-2.369237"><ele>723.5</ele><time>2015-07-29T07:06:49Z</time></trkpt><trkpt lat="42.924525" lon="-2.369180"><ele>722.6</ele><time>2015-07-29T07:06:57Z</time></trkpt><trkpt lat="42.924731" lon="-2.369152"><ele>720.2</ele><time>2015-07-29T07:07:15Z</time></trkpt><trkpt lat="42.924875" lon="-2.369195"><ele>720.2</ele><time>2015-07-29T07:07:29Z</time></trkpt><trkpt lat="42.925000" lon="-2.369273"><ele>723.1</ele><time>2015-07-29T07:07:44Z</time></trkpt><trkpt lat="42.925134" lon="-2.369328"><ele>724.5</ele><time>2015-07-29T07:08:01Z</time></trkpt><trkpt lat="42.925251" lon="-2.369354"><ele>725.0</ele><time>2015-07-29T07:08:15Z</time></trkpt><trkpt lat="42.925372" lon="-2.369362"><ele>726.4</ele><time>2015-07-29T07:08:29Z</time></trkpt><trkpt lat="42.925514" lon="-2.369354"><ele>726.4</ele><time>2015-07-29T07:08:45Z</time></trkpt><trkpt lat="42.925612" lon="-2.369354"><ele>725.9</ele><time>2015-07-29T07:08:59Z</time></trkpt><trkpt lat="42.925729" lon="-2.369404"><ele>726.9</ele><time>2015-07-29T07:09:15Z</time></trkpt><trkpt lat="42.925787" lon="-2.369449"><ele>728.3</ele><time>2015-07-29T07:09:27Z</time></trkpt><trkpt lat="42.925877" lon="-2.369530"><ele>730.7</ele><time>2015-07-29T07:09:42Z</time></trkpt><trkpt lat="42.925967" lon="-2.369601"><ele>731.7</ele><time>2015-07-29T07:09:58Z</time></trkpt><trkpt lat="42.926031" lon="-2.369672"><ele>738.0</ele><time>2015-07-29T07:10:12Z</time></trkpt><trkpt lat="42.926109" lon="-2.369713"><ele>738.9</ele><time>2015-07-29T07:10:26Z</time></trkpt><trkpt lat="42.926240" lon="-2.369762"><ele>739.9</ele><time>2015-07-29T07:10:44Z</time></trkpt><trkpt lat="42.926357" lon="-2.369840"><ele>741.3</ele><time>2015-07-29T07:10:59Z</time></trkpt><trkpt lat="42.926479" lon="-2.369924"><ele>741.3</ele><time>2015-07-29T07:11:13Z</time></trkpt><trkpt lat="42.926499" lon="-2.369931"><ele>740.8</ele><time>2015-07-29T07:11:18Z</time></trkpt><trkpt lat="42.926659" lon="-2.369965"><ele>735.6</ele><time>2015-07-29T07:11:34Z</time></trkpt><trkpt lat="42.926831" lon="-2.370035"><ele>733.1</ele><time>2015-07-29T07:11:49Z</time></trkpt><trkpt lat="42.926937" lon="-2.370084"><ele>732.7</ele><time>2015-07-29T07:12:00Z</time></trkpt><trkpt lat="42.926947" lon="-2.370089"><ele>733.1</ele><time>2015-07-29T07:12:01Z</time></trkpt><trkpt lat="42.927111" lon="-2.370137"><ele>732.2</ele><time>2015-07-29T07:12:16Z</time></trkpt><trkpt lat="42.927264" lon="-2.370196"><ele>727.9</ele><time>2015-07-29T07:12:33Z</time></trkpt><trkpt lat="42.927403" lon="-2.370243"><ele>726.9</ele><time>2015-07-29T07:12:47Z</time></trkpt><trkpt lat="42.927415" lon="-2.370243"><ele>726.9</ele><time>2015-07-29T07:12:48Z</time></trkpt><trkpt lat="42.927548" lon="-2.370245"><ele>727.4</ele><time>2015-07-29T07:13:00Z</time></trkpt><trkpt lat="42.927692" lon="-2.370170"><ele>725.5</ele><time>2015-07-29T07:13:15Z</time></trkpt><trkpt lat="42.927700" lon="-2.370169"><ele>725.5</ele><time>2015-07-29T07:13:16Z</time></trkpt><trkpt lat="42.927750" lon="-2.370146"><ele>725.5</ele><time>2015-07-29T07:13:21Z</time></trkpt><trkpt lat="42.927897" lon="-2.370084"><ele>725.9</ele><time>2015-07-29T07:13:35Z</time></trkpt><trkpt lat="42.928036" lon="-2.370038"><ele>726.4</ele><time>2015-07-29T07:13:49Z</time></trkpt><trkpt lat="42.928153" lon="-2.370068"><ele>727.4</ele><time>2015-07-29T07:14:00Z</time></trkpt><trkpt lat="42.928297" lon="-2.370098"><ele>728.3</ele><time>2015-07-29T07:14:15Z</time></trkpt><trkpt lat="42.928400" lon="-2.370170"><ele>726.4</ele><time>2015-07-29T07:14:28Z</time></trkpt><trkpt lat="42.928524" lon="-2.370314"><ele>728.8</ele><time>2015-07-29T07:14:44Z</time></trkpt><trkpt lat="42.928664" lon="-2.370466"><ele>734.6</ele><time>2015-07-29T07:15:00Z</time></trkpt><trkpt lat="42.928805" lon="-2.370478"><ele>732.2</ele><time>2015-07-29T07:15:16Z</time></trkpt><trkpt lat="42.928954" lon="-2.370540"><ele>736.0</ele><time>2015-07-29T07:15:31Z</time></trkpt><trkpt lat="42.929091" lon="-2.370569"><ele>733.1</ele><time>2015-07-29T07:15:48Z</time></trkpt><trkpt lat="42.929201" lon="-2.370630"><ele>734.6</ele><time>2015-07-29T07:16:01Z</time></trkpt><trkpt lat="42.929295" lon="-2.370646"><ele>734.1</ele><time>2015-07-29T07:16:14Z</time></trkpt><trkpt lat="42.929442" lon="-2.370673"><ele>737.5</ele><time>2015-07-29T07:16:30Z</time></trkpt><trkpt lat="42.929538" lon="-2.370726"><ele>738.9</ele><time>2015-07-29T07:16:41Z</time></trkpt><trkpt lat="42.929654" lon="-2.370800"><ele>738.9</ele><time>2015-07-29T07:16:56Z</time></trkpt><trkpt lat="42.929815" lon="-2.370889"><ele>740.8</ele><time>2015-07-29T07:17:14Z</time></trkpt><trkpt lat="42.929910" lon="-2.371014"><ele>741.3</ele><time>2015-07-29T07:17:29Z</time></trkpt><trkpt lat="42.930012" lon="-2.371118"><ele>741.8</ele><time>2015-07-29T07:17:44Z</time></trkpt><trkpt lat="42.930128" lon="-2.371309"><ele>747.6</ele><time>2015-07-29T07:18:00Z</time></trkpt><trkpt lat="42.930203" lon="-2.371409"><ele>748.0</ele><time>2015-07-29T07:18:13Z</time></trkpt><trkpt lat="42.930299" lon="-2.371557"><ele>748.0</ele><time>2015-07-29T07:18:28Z</time></trkpt><trkpt lat="42.930371" lon="-2.371683"><ele>747.6</ele><time>2015-07-29T07:18:43Z</time></trkpt><trkpt lat="42.930483" lon="-2.371754"><ele>746.6</ele><time>2015-07-29T07:18:58Z</time></trkpt><trkpt lat="42.930593" lon="-2.371764"><ele>746.1</ele><time>2015-07-29T07:19:12Z</time></trkpt><trkpt lat="42.930651" lon="-2.371777"><ele>749.5</ele><time>2015-07-29T07:19:31Z</time></trkpt><trkpt lat="42.930696" lon="-2.371837"><ele>753.3</ele><time>2015-07-29T07:19:46Z</time></trkpt><trkpt lat="42.930775" lon="-2.371861"><ele>754.3</ele><time>2015-07-29T07:20:01Z</time></trkpt><trkpt lat="42.930875" lon="-2.371894"><ele>757.7</ele><time>2015-07-29T07:20:15Z</time></trkpt><trkpt lat="42.930914" lon="-2.371900"><ele>758.1</ele><time>2015-07-29T07:20:35Z</time></trkpt><trkpt lat="42.931035" lon="-2.371938"><ele>759.1</ele><time>2015-07-29T07:20:49Z</time></trkpt><trkpt lat="42.931165" lon="-2.371930"><ele>756.7</ele><time>2015-07-29T07:21:04Z</time></trkpt><trkpt lat="42.931190" lon="-2.371934"><ele>757.2</ele><time>2015-07-29T07:21:06Z</time></trkpt><trkpt lat="42.931300" lon="-2.371908"><ele>755.3</ele><time>2015-07-29T07:21:20Z</time></trkpt><trkpt lat="42.931450" lon="-2.371921"><ele>756.2</ele><time>2015-07-29T07:21:36Z</time></trkpt><trkpt lat="42.931563" lon="-2.371935"><ele>754.8</ele><time>2015-07-29T07:21:50Z</time></trkpt><trkpt lat="42.931708" lon="-2.371989"><ele>756.7</ele><time>2015-07-29T07:22:06Z</time></trkpt><trkpt lat="42.931825" lon="-2.372061"><ele>759.1</ele><time>2015-07-29T07:22:20Z</time></trkpt><trkpt lat="42.931965" lon="-2.372098"><ele>763.9</ele><time>2015-07-29T07:22:36Z</time></trkpt><trkpt lat="42.932063" lon="-2.372148"><ele>769.7</ele><time>2015-07-29T07:22:49Z</time></trkpt><trkpt lat="42.932151" lon="-2.372190"><ele>771.1</ele><time>2015-07-29T07:23:02Z</time></trkpt><trkpt lat="42.932185" lon="-2.372297"><ele>771.1</ele><time>2015-07-29T07:23:15Z</time></trkpt><trkpt lat="42.932185" lon="-2.372336"><ele>771.6</ele><time>2015-07-29T07:23:31Z</time></trkpt><trkpt lat="42.932169" lon="-2.372377"><ele>771.1</ele><time>2015-07-29T07:23:45Z</time></trkpt><trkpt lat="42.932154" lon="-2.372392"><ele>773.5</ele><time>2015-07-29T07:23:57Z</time></trkpt><trkpt lat="42.932111" lon="-2.372354"><ele>780.7</ele><time>2015-07-29T07:24:22Z</time></trkpt><trkpt lat="42.932066" lon="-2.372383"><ele>782.7</ele><time>2015-07-29T07:24:37Z</time></trkpt><trkpt lat="42.932020" lon="-2.372485"><ele>782.7</ele><time>2015-07-29T07:24:50Z</time></trkpt><trkpt lat="42.931902" lon="-2.372638"><ele>781.7</ele><time>2015-07-29T07:25:06Z</time></trkpt><trkpt lat="42.931900" lon="-2.372650"><ele>781.7</ele><time>2015-07-29T07:25:07Z</time></trkpt><trkpt lat="42.931848" lon="-2.372857"><ele>784.6</ele><time>2015-07-29T07:25:22Z</time></trkpt><trkpt lat="42.931837" lon="-2.373018"><ele>788.4</ele><time>2015-07-29T07:25:38Z</time></trkpt><trkpt lat="42.931878" lon="-2.373102"><ele>789.4</ele><time>2015-07-29T07:25:52Z</time></trkpt><trkpt lat="42.931982" lon="-2.373206"><ele>788.9</ele><time>2015-07-29T07:26:11Z</time></trkpt><trkpt lat="42.932050" lon="-2.373295"><ele>791.3</ele><time>2015-07-29T07:26:24Z</time></trkpt><trkpt lat="42.932109" lon="-2.373396"><ele>797.1</ele><time>2015-07-29T07:26:39Z</time></trkpt><trkpt lat="42.932169" lon="-2.373478"><ele>798.0</ele><time>2015-07-29T07:26:55Z</time></trkpt><trkpt lat="42.932244" lon="-2.373545"><ele>799.5</ele><time>2015-07-29T07:27:08Z</time></trkpt><trkpt lat="42.932287" lon="-2.373627"><ele>800.4</ele><time>2015-07-29T07:27:22Z</time></trkpt><trkpt lat="42.932204" lon="-2.373792"><ele>801.4</ele><time>2015-07-29T07:27:39Z</time></trkpt><trkpt lat="42.932119" lon="-2.373941"><ele>806.2</ele><time>2015-07-29T07:27:56Z</time></trkpt><trkpt lat="42.932103" lon="-2.374088"><ele>808.6</ele><time>2015-07-29T07:28:11Z</time></trkpt><trkpt lat="42.932141" lon="-2.374184"><ele>809.1</ele><time>2015-07-29T07:28:25Z</time></trkpt><trkpt lat="42.932172" lon="-2.374313"><ele>810.5</ele><time>2015-07-29T07:28:41Z</time></trkpt><trkpt lat="42.932209" lon="-2.374433"><ele>813.9</ele><time>2015-07-29T07:28:52Z</time></trkpt><trkpt lat="42.932242" lon="-2.374506"><ele>812.5</ele><time>2015-07-29T07:29:07Z</time></trkpt><trkpt lat="42.932282" lon="-2.374515"><ele>813.4</ele><time>2015-07-29T07:29:22Z</time></trkpt><trkpt lat="42.932306" lon="-2.374530"><ele>812.0</ele><time>2015-07-29T07:29:42Z</time></trkpt><trkpt lat="42.932315" lon="-2.374629"><ele>813.9</ele><time>2015-07-29T07:30:01Z</time></trkpt><trkpt lat="42.932351" lon="-2.374698"><ele>816.3</ele><time>2015-07-29T07:30:17Z</time></trkpt><trkpt lat="42.932401" lon="-2.374766"><ele>818.2</ele><time>2015-07-29T07:30:33Z</time></trkpt><trkpt lat="42.932474" lon="-2.374803"><ele>817.7</ele><time>2015-07-29T07:30:49Z</time></trkpt><trkpt lat="42.932566" lon="-2.374858"><ele>820.6</ele><time>2015-07-29T07:31:06Z</time></trkpt><trkpt lat="42.932647" lon="-2.374890"><ele>821.1</ele><time>2015-07-29T07:31:22Z</time></trkpt><trkpt lat="42.932722" lon="-2.374937"><ele>822.6</ele><time>2015-07-29T07:31:38Z</time></trkpt><trkpt lat="42.932790" lon="-2.374953"><ele>824.0</ele><time>2015-07-29T07:31:51Z</time></trkpt><trkpt lat="42.932882" lon="-2.375011"><ele>825.9</ele><time>2015-07-29T07:32:06Z</time></trkpt><trkpt lat="42.932961" lon="-2.375031"><ele>826.4</ele><time>2015-07-29T07:32:22Z</time></trkpt><trkpt lat="42.933030" lon="-2.375044"><ele>827.8</ele><time>2015-07-29T07:32:35Z</time></trkpt><trkpt lat="42.933077" lon="-2.375077"><ele>830.7</ele><time>2015-07-29T07:32:47Z</time></trkpt><trkpt lat="42.933107" lon="-2.375071"><ele>835.0</ele><time>2015-07-29T07:33:08Z</time></trkpt><trkpt lat="42.933134" lon="-2.375068"><ele>839.9</ele><time>2015-07-29T07:33:31Z</time></trkpt><trkpt lat="42.933186" lon="-2.375104"><ele>839.9</ele><time>2015-07-29T07:33:45Z</time></trkpt><trkpt lat="42.933198" lon="-2.375123"><ele>838.4</ele><time>2015-07-29T07:34:00Z</time></trkpt><trkpt lat="42.933228" lon="-2.375150"><ele>838.9</ele><time>2015-07-29T07:34:14Z</time></trkpt><trkpt lat="42.933248" lon="-2.375199"><ele>842.7</ele><time>2015-07-29T07:34:33Z</time></trkpt><trkpt lat="42.933291" lon="-2.375236"><ele>843.2</ele><time>2015-07-29T07:34:54Z</time></trkpt><trkpt lat="42.933343" lon="-2.375275"><ele>848.0</ele><time>2015-07-29T07:35:14Z</time></trkpt><trkpt lat="42.933375" lon="-2.375326"><ele>848.0</ele><time>2015-07-29T07:35:31Z</time></trkpt><trkpt lat="42.933431" lon="-2.375419"><ele>845.1</ele><time>2015-07-29T07:35:46Z</time></trkpt><trkpt lat="42.933463" lon="-2.375497"><ele>842.3</ele><time>2015-07-29T07:36:02Z</time></trkpt><trkpt lat="42.933494" lon="-2.375568"><ele>841.3</ele><time>2015-07-29T07:36:19Z</time></trkpt><trkpt lat="42.933510" lon="-2.375619"><ele>841.3</ele><time>2015-07-29T07:36:34Z</time></trkpt><trkpt lat="42.933520" lon="-2.375696"><ele>842.3</ele><time>2015-07-29T07:36:51Z</time></trkpt><trkpt lat="42.933570" lon="-2.375822"><ele>842.7</ele><time>2015-07-29T07:37:05Z</time></trkpt><trkpt lat="42.933604" lon="-2.375971"><ele>843.7</ele><time>2015-07-29T07:37:19Z</time></trkpt><trkpt lat="42.933603" lon="-2.376172"><ele>849.0</ele><time>2015-07-29T07:37:36Z</time></trkpt><trkpt lat="42.933610" lon="-2.376307"><ele>849.9</ele><time>2015-07-29T07:37:46Z</time></trkpt><trkpt lat="42.933733" lon="-2.376476"><ele>849.0</ele><time>2015-07-29T07:38:06Z</time></trkpt><trkpt lat="42.933820" lon="-2.376589"><ele>847.5</ele><time>2015-07-29T07:38:22Z</time></trkpt><trkpt lat="42.933881" lon="-2.376720"><ele>847.1</ele><time>2015-07-29T07:38:36Z</time></trkpt><trkpt lat="42.933941" lon="-2.376866"><ele>846.6</ele><time>2015-07-29T07:38:51Z</time></trkpt><trkpt lat="42.934031" lon="-2.376988"><ele>845.1</ele><time>2015-07-29T07:39:08Z</time></trkpt><trkpt lat="42.934113" lon="-2.377079"><ele>844.7</ele><time>2015-07-29T07:39:26Z</time></trkpt><trkpt lat="42.934193" lon="-2.377139"><ele>844.7</ele><time>2015-07-29T07:39:40Z</time></trkpt><trkpt lat="42.934283" lon="-2.377207"><ele>847.1</ele><time>2015-07-29T07:39:57Z</time></trkpt><trkpt lat="42.934361" lon="-2.377224"><ele>850.4</ele><time>2015-07-29T07:40:14Z</time></trkpt><trkpt lat="42.934418" lon="-2.377251"><ele>853.3</ele><time>2015-07-29T07:40:28Z</time></trkpt><trkpt lat="42.934476" lon="-2.377267"><ele>856.7</ele><time>2015-07-29T07:40:44Z</time></trkpt><trkpt lat="42.934541" lon="-2.377292"><ele>859.1</ele><time>2015-07-29T07:40:59Z</time></trkpt><trkpt lat="42.934622" lon="-2.377308"><ele>862.9</ele><time>2015-07-29T07:41:14Z</time></trkpt><trkpt lat="42.934641" lon="-2.377345"><ele>865.3</ele><time>2015-07-29T07:41:25Z</time></trkpt><trkpt lat="42.934712" lon="-2.377368"><ele>866.3</ele><time>2015-07-29T07:41:41Z</time></trkpt><trkpt lat="42.934776" lon="-2.377384"><ele>867.7</ele><time>2015-07-29T07:41:56Z</time></trkpt><trkpt lat="42.934835" lon="-2.377405"><ele>869.7</ele><time>2015-07-29T07:42:11Z</time></trkpt><trkpt lat="42.934882" lon="-2.377435"><ele>873.0</ele><time>2015-07-29T07:42:26Z</time></trkpt><trkpt lat="42.934979" lon="-2.377438"><ele>875.9</ele><time>2015-07-29T07:42:45Z</time></trkpt><trkpt lat="42.935023" lon="-2.377430"><ele>879.7</ele><time>2015-07-29T07:42:59Z</time></trkpt><trkpt lat="42.935116" lon="-2.377404"><ele>879.3</ele><time>2015-07-29T07:43:14Z</time></trkpt><trkpt lat="42.935175" lon="-2.377405"><ele>879.3</ele><time>2015-07-29T07:43:30Z</time></trkpt><trkpt lat="42.935246" lon="-2.377426"><ele>879.7</ele><time>2015-07-29T07:43:46Z</time></trkpt><trkpt lat="42.935331" lon="-2.377480"><ele>882.6</ele><time>2015-07-29T07:44:05Z</time></trkpt><trkpt lat="42.935431" lon="-2.377510"><ele>883.6</ele><time>2015-07-29T07:44:21Z</time></trkpt><trkpt lat="42.935492" lon="-2.377536"><ele>884.6</ele><time>2015-07-29T07:44:34Z</time></trkpt><trkpt lat="42.935590" lon="-2.377532"><ele>885.0</ele><time>2015-07-29T07:44:50Z</time></trkpt><trkpt lat="42.935674" lon="-2.377530"><ele>887.4</ele><time>2015-07-29T07:45:06Z</time></trkpt><trkpt lat="42.935762" lon="-2.377581"><ele>893.2</ele><time>2015-07-29T07:45:21Z</time></trkpt><trkpt lat="42.935829" lon="-2.377629"><ele>895.1</ele><time>2015-07-29T07:45:33Z</time></trkpt><trkpt lat="42.935903" lon="-2.377684"><ele>898.0</ele><time>2015-07-29T07:45:46Z</time></trkpt><trkpt lat="42.935959" lon="-2.377715"><ele>899.0</ele><time>2015-07-29T07:45:58Z</time></trkpt><trkpt lat="42.936056" lon="-2.377725"><ele>899.5</ele><time>2015-07-29T07:46:13Z</time></trkpt><trkpt lat="42.936180" lon="-2.377730"><ele>902.8</ele><time>2015-07-29T07:46:30Z</time></trkpt><trkpt lat="42.936281" lon="-2.377764"><ele>902.3</ele><time>2015-07-29T07:46:47Z</time></trkpt><trkpt lat="42.936341" lon="-2.377748"><ele>902.8</ele><time>2015-07-29T07:47:00Z</time></trkpt><trkpt lat="42.936373" lon="-2.377658"><ele>901.4</ele><time>2015-07-29T07:47:15Z</time></trkpt><trkpt lat="42.936384" lon="-2.377543"><ele>900.9</ele><time>2015-07-29T07:47:30Z</time></trkpt><trkpt lat="42.936383" lon="-2.377410"><ele>902.3</ele><time>2015-07-29T07:47:45Z</time></trkpt><trkpt lat="42.936376" lon="-2.377272"><ele>905.2</ele><time>2015-07-29T07:48:00Z</time></trkpt><trkpt lat="42.936349" lon="-2.377177"><ele>909.5</ele><time>2015-07-29T07:48:13Z</time></trkpt><trkpt lat="42.936317" lon="-2.377098"><ele>912.9</ele><time>2015-07-29T07:48:28Z</time></trkpt><trkpt lat="42.936285" lon="-2.376983"><ele>916.3</ele><time>2015-07-29T07:48:44Z</time></trkpt><trkpt lat="42.936286" lon="-2.376858"><ele>918.2</ele><time>2015-07-29T07:49:01Z</time></trkpt><trkpt lat="42.936273" lon="-2.376757"><ele>916.3</ele><time>2015-07-29T07:49:16Z</time></trkpt><trkpt lat="42.936251" lon="-2.376619"><ele>916.8</ele><time>2015-07-29T07:49:32Z</time></trkpt><trkpt lat="42.936235" lon="-2.376484"><ele>918.2</ele><time>2015-07-29T07:49:47Z</time></trkpt><trkpt lat="42.936242" lon="-2.376387"><ele>922.0</ele><time>2015-07-29T07:50:03Z</time></trkpt><trkpt lat="42.936279" lon="-2.376311"><ele>926.4</ele><time>2015-07-29T07:50:19Z</time></trkpt><trkpt lat="42.936289" lon="-2.376332"><ele>933.1</ele><time>2015-07-29T07:50:32Z</time></trkpt><trkpt lat="42.936334" lon="-2.376405"><ele>939.8</ele><time>2015-07-29T07:50:48Z</time></trkpt><trkpt lat="42.936397" lon="-2.376474"><ele>942.7</ele><time>2015-07-29T07:51:03Z</time></trkpt><trkpt lat="42.936448" lon="-2.376482"><ele>943.2</ele><time>2015-07-29T07:51:16Z</time></trkpt><trkpt lat="42.936514" lon="-2.376489"><ele>944.2</ele><time>2015-07-29T07:51:30Z</time></trkpt><trkpt lat="42.936586" lon="-2.376497"><ele>947.0</ele><time>2015-07-29T07:51:46Z</time></trkpt><trkpt lat="42.936636" lon="-2.376500"><ele>949.0</ele><time>2015-07-29T07:52:00Z</time></trkpt><trkpt lat="42.936700" lon="-2.376504"><ele>951.8</ele><time>2015-07-29T07:52:16Z</time></trkpt><trkpt lat="42.936753" lon="-2.376515"><ele>954.7</ele><time>2015-07-29T07:52:32Z</time></trkpt><trkpt lat="42.936822" lon="-2.376523"><ele>953.3</ele><time>2015-07-29T07:52:46Z</time></trkpt><trkpt lat="42.936899" lon="-2.376535"><ele>953.3</ele><time>2015-07-29T07:53:02Z</time></trkpt><trkpt lat="42.936955" lon="-2.376545"><ele>954.7</ele><time>2015-07-29T07:53:18Z</time></trkpt><trkpt lat="42.937031" lon="-2.376563"><ele>956.2</ele><time>2015-07-29T07:53:34Z</time></trkpt><trkpt lat="42.937111" lon="-2.376598"><ele>961.0</ele><time>2015-07-29T07:53:51Z</time></trkpt><trkpt lat="42.937169" lon="-2.376584"><ele>963.4</ele><time>2015-07-29T07:54:05Z</time></trkpt><trkpt lat="42.937213" lon="-2.376539"><ele>966.7</ele><time>2015-07-29T07:54:17Z</time></trkpt><trkpt lat="42.937255" lon="-2.376502"><ele>968.7</ele><time>2015-07-29T07:54:30Z</time></trkpt><trkpt lat="42.937281" lon="-2.376480"><ele>972.0</ele><time>2015-07-29T07:54:46Z</time></trkpt><trkpt lat="42.937313" lon="-2.376428"><ele>973.0</ele><time>2015-07-29T07:54:59Z</time></trkpt><trkpt lat="42.937355" lon="-2.376332"><ele>973.5</ele><time>2015-07-29T07:55:13Z</time></trkpt><trkpt lat="42.937348" lon="-2.376204"><ele>971.6</ele><time>2015-07-29T07:55:27Z</time></trkpt><trkpt lat="42.937343" lon="-2.376139"><ele>971.1</ele><time>2015-07-29T07:55:41Z</time></trkpt><trkpt lat="42.937333" lon="-2.376108"><ele>973.5</ele><time>2015-07-29T07:55:55Z</time></trkpt><trkpt lat="42.937340" lon="-2.376098"><ele>974.0</ele><time>2015-07-29T07:56:00Z</time></trkpt><trkpt lat="42.937343" lon="-2.375992"><ele>973.5</ele><time>2015-07-29T07:56:16Z</time></trkpt><trkpt lat="42.937405" lon="-2.375878"><ele>973.0</ele><time>2015-07-29T07:56:32Z</time></trkpt><trkpt lat="42.937467" lon="-2.375787"><ele>971.6</ele><time>2015-07-29T07:56:49Z</time></trkpt><trkpt lat="42.937486" lon="-2.375718"><ele>974.4</ele><time>2015-07-29T07:57:02Z</time></trkpt><trkpt lat="42.937507" lon="-2.375635"><ele>978.3</ele><time>2015-07-29T07:57:19Z</time></trkpt><trkpt lat="42.937541" lon="-2.375570"><ele>979.2</ele><time>2015-07-29T07:57:32Z</time></trkpt><trkpt lat="42.937589" lon="-2.375494"><ele>984.1</ele><time>2015-07-29T07:57:48Z</time></trkpt><trkpt lat="42.937639" lon="-2.375417"><ele>986.0</ele><time>2015-07-29T07:58:04Z</time></trkpt><trkpt lat="42.937700" lon="-2.375346"><ele>990.8</ele><time>2015-07-29T07:58:21Z</time></trkpt><trkpt lat="42.937735" lon="-2.375286"><ele>999.0</ele><time>2015-07-29T07:58:35Z</time></trkpt><trkpt lat="42.937760" lon="-2.375234"><ele>1001.4</ele><time>2015-07-29T07:58:48Z</time></trkpt><trkpt lat="42.937786" lon="-2.375138"><ele>1001.4</ele><time>2015-07-29T07:59:02Z</time></trkpt><trkpt lat="42.937798" lon="-2.375046"><ele>999.0</ele><time>2015-07-29T07:59:15Z</time></trkpt><trkpt lat="42.937811" lon="-2.374938"><ele>998.5</ele><time>2015-07-29T07:59:29Z</time></trkpt><trkpt lat="42.937805" lon="-2.374840"><ele>1000.9</ele><time>2015-07-29T07:59:44Z</time></trkpt><trkpt lat="42.937793" lon="-2.374758"><ele>998.5</ele><time>2015-07-29T07:59:59Z</time></trkpt><trkpt lat="42.937781" lon="-2.374642"><ele>999.4</ele><time>2015-07-29T08:00:16Z</time></trkpt><trkpt lat="42.937811" lon="-2.374528"><ele>1000.9</ele><time>2015-07-29T08:00:33Z</time></trkpt><trkpt lat="42.937790" lon="-2.374503"><ele>1012.9</ele><time>2015-07-29T08:00:50Z</time></trkpt><trkpt lat="42.937799" lon="-2.374391"><ele>1014.8</ele><time>2015-07-29T08:01:06Z</time></trkpt><trkpt lat="42.937834" lon="-2.374274"><ele>1015.8</ele><time>2015-07-29T08:01:22Z</time></trkpt><trkpt lat="42.937860" lon="-2.374158"><ele>1017.2</ele><time>2015-07-29T08:01:39Z</time></trkpt><trkpt lat="42.937847" lon="-2.374076"><ele>1019.1</ele><time>2015-07-29T08:01:54Z</time></trkpt><trkpt lat="42.937861" lon="-2.373947"><ele>1023.0</ele><time>2015-07-29T08:02:13Z</time></trkpt><trkpt lat="42.937881" lon="-2.373854"><ele>1027.8</ele><time>2015-07-29T08:02:29Z</time></trkpt><trkpt lat="42.937898" lon="-2.373759"><ele>1029.7</ele><time>2015-07-29T08:02:44Z</time></trkpt><trkpt lat="42.937943" lon="-2.373598"><ele>1033.1</ele><time>2015-07-29T08:03:05Z</time></trkpt><trkpt lat="42.937969" lon="-2.373536"><ele>1038.8</ele><time>2015-07-29T08:03:24Z</time></trkpt><trkpt lat="42.938008" lon="-2.373492"><ele>1044.6</ele><time>2015-07-29T08:03:39Z</time></trkpt><trkpt lat="42.938059" lon="-2.373443"><ele>1049.4</ele><time>2015-07-29T08:03:54Z</time></trkpt><trkpt lat="42.938132" lon="-2.373375"><ele>1052.8</ele><time>2015-07-29T08:04:11Z</time></trkpt><trkpt lat="42.938222" lon="-2.373309"><ele>1054.7</ele><time>2015-07-29T08:04:31Z</time></trkpt><trkpt lat="42.938293" lon="-2.373268"><ele>1056.2</ele><time>2015-07-29T08:04:44Z</time></trkpt><trkpt lat="42.938359" lon="-2.373163"><ele>1057.6</ele><time>2015-07-29T08:04:59Z</time></trkpt><trkpt lat="42.938418" lon="-2.373089"><ele>1060.5</ele><time>2015-07-29T08:05:13Z</time></trkpt><trkpt lat="42.938450" lon="-2.373006"><ele>1061.4</ele><time>2015-07-29T08:05:27Z</time></trkpt><trkpt lat="42.938490" lon="-2.372914"><ele>1061.4</ele><time>2015-07-29T08:05:41Z</time></trkpt><trkpt lat="42.938507" lon="-2.372800"><ele>1061.4</ele><time>2015-07-29T08:05:56Z</time></trkpt><trkpt lat="42.938554" lon="-2.372667"><ele>1061.4</ele><time>2015-07-29T08:06:11Z</time></trkpt><trkpt lat="42.938569" lon="-2.372578"><ele>1061.0</ele><time>2015-07-29T08:06:26Z</time></trkpt><trkpt lat="42.938608" lon="-2.372508"><ele>1061.0</ele><time>2015-07-29T08:06:34Z</time></trkpt><trkpt lat="42.938620" lon="-2.372459"><ele>1062.9</ele><time>2015-07-29T08:06:48Z</time></trkpt><trkpt lat="42.938680" lon="-2.372431"><ele>1064.3</ele><time>2015-07-29T08:07:04Z</time></trkpt><trkpt lat="42.938714" lon="-2.372422"><ele>1064.3</ele><time>2015-07-29T08:07:16Z</time></trkpt><trkpt lat="42.938726" lon="-2.372410"><ele>1065.3</ele><time>2015-07-29T08:07:20Z</time></trkpt><trkpt lat="42.938773" lon="-2.372368"><ele>1065.3</ele><time>2015-07-29T08:07:33Z</time></trkpt><trkpt lat="42.938859" lon="-2.372321"><ele>1066.7</ele><time>2015-07-29T08:07:46Z</time></trkpt><trkpt lat="42.938944" lon="-2.372276"><ele>1066.7</ele><time>2015-07-29T08:08:00Z</time></trkpt><trkpt lat="42.938973" lon="-2.372234"><ele>1068.2</ele><time>2015-07-29T08:08:13Z</time></trkpt><trkpt lat="42.939026" lon="-2.372185"><ele>1070.6</ele><time>2015-07-29T08:08:28Z</time></trkpt><trkpt lat="42.939042" lon="-2.372081"><ele>1069.6</ele><time>2015-07-29T08:08:41Z</time></trkpt><trkpt lat="42.939055" lon="-2.371963"><ele>1073.0</ele><time>2015-07-29T08:08:55Z</time></trkpt><trkpt lat="42.939042" lon="-2.371839"><ele>1073.9</ele><time>2015-07-29T08:09:11Z</time></trkpt><trkpt lat="42.939040" lon="-2.371689"><ele>1073.9</ele><time>2015-07-29T08:09:27Z</time></trkpt><trkpt lat="42.939088" lon="-2.371572"><ele>1075.4</ele><time>2015-07-29T08:09:42Z</time></trkpt><trkpt lat="42.939146" lon="-2.371487"><ele>1076.8</ele><time>2015-07-29T08:09:56Z</time></trkpt><trkpt lat="42.939204" lon="-2.371432"><ele>1079.2</ele><time>2015-07-29T08:10:10Z</time></trkpt><trkpt lat="42.939281" lon="-2.371350"><ele>1080.2</ele><time>2015-07-29T08:10:25Z</time></trkpt><trkpt lat="42.939344" lon="-2.371254"><ele>1081.6</ele><time>2015-07-29T08:10:41Z</time></trkpt><trkpt lat="42.939408" lon="-2.371137"><ele>1083.1</ele><time>2015-07-29T08:10:57Z</time></trkpt><trkpt lat="42.939485" lon="-2.371091"><ele>1087.4</ele><time>2015-07-29T08:11:13Z</time></trkpt><trkpt lat="42.939544" lon="-2.371048"><ele>1088.8</ele><time>2015-07-29T08:11:24Z</time></trkpt><trkpt lat="42.939583" lon="-2.370972"><ele>1092.2</ele><time>2015-07-29T08:11:36Z</time></trkpt><trkpt lat="42.939596" lon="-2.370871"><ele>1096.5</ele><time>2015-07-29T08:11:52Z</time></trkpt><trkpt lat="42.939618" lon="-2.370788"><ele>1099.4</ele><time>2015-07-29T08:12:07Z</time></trkpt><trkpt lat="42.939663" lon="-2.370718"><ele>1104.2</ele><time>2015-07-29T08:12:21Z</time></trkpt><trkpt lat="42.939709" lon="-2.370607"><ele>1107.1</ele><time>2015-07-29T08:12:38Z</time></trkpt><trkpt lat="42.939707" lon="-2.370489"><ele>1108.1</ele><time>2015-07-29T08:12:54Z</time></trkpt><trkpt lat="42.939712" lon="-2.370320"><ele>1107.1</ele><time>2015-07-29T08:13:11Z</time></trkpt><trkpt lat="42.939723" lon="-2.370184"><ele>1106.1</ele><time>2015-07-29T08:13:26Z</time></trkpt><trkpt lat="42.939699" lon="-2.370066"><ele>1106.6</ele><time>2015-07-29T08:13:39Z</time></trkpt><trkpt lat="42.939644" lon="-2.369968"><ele>1106.6</ele><time>2015-07-29T08:13:53Z</time></trkpt><trkpt lat="42.939572" lon="-2.369825"><ele>1105.7</ele><time>2015-07-29T08:14:08Z</time></trkpt><trkpt lat="42.939523" lon="-2.369693"><ele>1102.8</ele><time>2015-07-29T08:14:22Z</time></trkpt><trkpt lat="42.939473" lon="-2.369526"><ele>1102.3</ele><time>2015-07-29T08:14:37Z</time></trkpt><trkpt lat="42.939452" lon="-2.369387"><ele>1102.3</ele><time>2015-07-29T08:14:52Z</time></trkpt><trkpt lat="42.939422" lon="-2.369238"><ele>1104.2</ele><time>2015-07-29T08:15:07Z</time></trkpt><trkpt lat="42.939386" lon="-2.369093"><ele>1107.6</ele><time>2015-07-29T08:15:24Z</time></trkpt><trkpt lat="42.939361" lon="-2.368939"><ele>1109.0</ele><time>2015-07-29T08:15:40Z</time></trkpt><trkpt lat="42.939337" lon="-2.368769"><ele>1111.9</ele><time>2015-07-29T08:15:57Z</time></trkpt><trkpt lat="42.939301" lon="-2.368649"><ele>1116.2</ele><time>2015-07-29T08:16:13Z</time></trkpt><trkpt lat="42.939264" lon="-2.368514"><ele>1120.1</ele><time>2015-07-29T08:16:28Z</time></trkpt><trkpt lat="42.939245" lon="-2.368432"><ele>1123.4</ele><time>2015-07-29T08:16:42Z</time></trkpt><trkpt lat="42.939222" lon="-2.368339"><ele>1126.3</ele><time>2015-07-29T08:16:55Z</time></trkpt><trkpt lat="42.939206" lon="-2.368209"><ele>1129.2</ele><time>2015-07-29T08:17:12Z</time></trkpt><trkpt lat="42.939188" lon="-2.368061"><ele>1131.1</ele><time>2015-07-29T08:17:28Z</time></trkpt><trkpt lat="42.939182" lon="-2.367930"><ele>1133.5</ele><time>2015-07-29T08:17:44Z</time></trkpt><trkpt lat="42.939166" lon="-2.367807"><ele>1135.9</ele><time>2015-07-29T08:18:00Z</time></trkpt><trkpt lat="42.939171" lon="-2.367694"><ele>1137.9</ele><time>2015-07-29T08:18:15Z</time></trkpt><trkpt lat="42.939209" lon="-2.367615"><ele>1139.3</ele><time>2015-07-29T08:18:29Z</time></trkpt><trkpt lat="42.939311" lon="-2.367619"><ele>1139.3</ele><time>2015-07-29T08:18:43Z</time></trkpt><trkpt lat="42.939392" lon="-2.367681"><ele>1140.3</ele><time>2015-07-29T08:18:56Z</time></trkpt><trkpt lat="42.939470" lon="-2.367749"><ele>1139.8</ele><time>2015-07-29T08:19:09Z</time></trkpt><trkpt lat="42.939543" lon="-2.367820"><ele>1139.8</ele><time>2015-07-29T08:19:22Z</time></trkpt><trkpt lat="42.939602" lon="-2.367871"><ele>1141.7</ele><time>2015-07-29T08:19:32Z</time></trkpt><trkpt lat="42.939676" lon="-2.367941"><ele>1143.1</ele><time>2015-07-29T08:19:45Z</time></trkpt><trkpt lat="42.939777" lon="-2.368019"><ele>1145.1</ele><time>2015-07-29T08:20:00Z</time></trkpt><trkpt lat="42.939852" lon="-2.368095"><ele>1146.0</ele><time>2015-07-29T08:20:13Z</time></trkpt><trkpt lat="42.939924" lon="-2.368155"><ele>1147.5</ele><time>2015-07-29T08:20:26Z</time></trkpt><trkpt lat="42.940007" lon="-2.368206"><ele>1149.4</ele><time>2015-07-29T08:20:42Z</time></trkpt><trkpt lat="42.940102" lon="-2.368254"><ele>1150.4</ele><time>2015-07-29T08:20:57Z</time></trkpt><trkpt lat="42.940178" lon="-2.368252"><ele>1151.8</ele><time>2015-07-29T08:21:11Z</time></trkpt><trkpt lat="42.940199" lon="-2.368179"><ele>1152.8</ele><time>2015-07-29T08:21:25Z</time></trkpt><trkpt lat="42.940252" lon="-2.368133"><ele>1155.2</ele><time>2015-07-29T08:21:38Z</time></trkpt><trkpt lat="42.940316" lon="-2.368118"><ele>1155.6</ele><time>2015-07-29T08:21:51Z</time></trkpt><trkpt lat="42.940358" lon="-2.368080"><ele>1157.6</ele><time>2015-07-29T08:22:03Z</time></trkpt><trkpt lat="42.940397" lon="-2.368039"><ele>1159.5</ele><time>2015-07-29T08:22:17Z</time></trkpt><trkpt lat="42.940437" lon="-2.367981"><ele>1161.4</ele><time>2015-07-29T08:22:33Z</time></trkpt><trkpt lat="42.940487" lon="-2.367955"><ele>1164.8</ele><time>2015-07-29T08:22:48Z</time></trkpt><trkpt lat="42.940523" lon="-2.367910"><ele>1167.2</ele><time>2015-07-29T08:23:01Z</time></trkpt><trkpt lat="42.940565" lon="-2.367861"><ele>1169.6</ele><time>2015-07-29T08:23:17Z</time></trkpt><trkpt lat="42.940598" lon="-2.367811"><ele>1172.0</ele><time>2015-07-29T08:23:31Z</time></trkpt><trkpt lat="42.940647" lon="-2.367775"><ele>1172.5</ele><time>2015-07-29T08:23:43Z</time></trkpt><trkpt lat="42.940674" lon="-2.367721"><ele>1174.4</ele><time>2015-07-29T08:23:55Z</time></trkpt><trkpt lat="42.940713" lon="-2.367692"><ele>1176.3</ele><time>2015-07-29T08:24:09Z</time></trkpt><trkpt lat="42.940741" lon="-2.367646"><ele>1177.8</ele><time>2015-07-29T08:24:21Z</time></trkpt><trkpt lat="42.940790" lon="-2.367632"><ele>1179.2</ele><time>2015-07-29T08:24:34Z</time></trkpt><trkpt lat="42.940817" lon="-2.367594"><ele>1181.1</ele><time>2015-07-29T08:24:48Z</time></trkpt><trkpt lat="42.940859" lon="-2.367573"><ele>1184.0</ele><time>2015-07-29T08:25:02Z</time></trkpt><trkpt lat="42.940878" lon="-2.367517"><ele>1185.4</ele><time>2015-07-29T08:25:16Z</time></trkpt><trkpt lat="42.940907" lon="-2.367507"><ele>1186.9</ele><time>2015-07-29T08:25:29Z</time></trkpt><trkpt lat="42.940950" lon="-2.367472"><ele>1188.3</ele><time>2015-07-29T08:25:42Z</time></trkpt><trkpt lat="42.940980" lon="-2.367453"><ele>1189.8</ele><time>2015-07-29T08:25:57Z</time></trkpt><trkpt lat="42.941042" lon="-2.367430"><ele>1190.7</ele><time>2015-07-29T08:26:11Z</time></trkpt><trkpt lat="42.941072" lon="-2.367392"><ele>1192.7</ele><time>2015-07-29T08:26:27Z</time></trkpt><trkpt lat="42.941099" lon="-2.367350"><ele>1194.1</ele><time>2015-07-29T08:26:41Z</time></trkpt><trkpt lat="42.941119" lon="-2.367304"><ele>1196.0</ele><time>2015-07-29T08:26:54Z</time></trkpt><trkpt lat="42.941153" lon="-2.367260"><ele>1197.5</ele><time>2015-07-29T08:27:08Z</time></trkpt><trkpt lat="42.941178" lon="-2.367245"><ele>1198.9</ele><time>2015-07-29T08:27:25Z</time></trkpt><trkpt lat="42.941191" lon="-2.367223"><ele>1199.4</ele><time>2015-07-29T08:27:47Z</time></trkpt><trkpt lat="42.941174" lon="-2.367201"><ele>1199.9</ele><time>2015-07-29T08:28:02Z</time></trkpt><trkpt lat="42.941203" lon="-2.367187"><ele>1197.5</ele><time>2015-07-29T08:28:17Z</time></trkpt><trkpt lat="42.941219" lon="-2.367180"><ele>1197.0</ele><time>2015-07-29T08:28:34Z</time></trkpt><trkpt lat="42.941220" lon="-2.367162"><ele>1197.5</ele><time>2015-07-29T08:28:47Z</time></trkpt><trkpt lat="42.941200" lon="-2.367153"><ele>1197.0</ele><time>2015-07-29T08:29:01Z</time></trkpt><trkpt lat="42.941197" lon="-2.367169"><ele>1198.9</ele><time>2015-07-29T08:29:23Z</time></trkpt><trkpt lat="42.941194" lon="-2.367163"><ele>1198.9</ele><time>2015-07-29T08:29:49Z</time></trkpt><trkpt lat="42.941186" lon="-2.367173"><ele>1197.9</ele><time>2015-07-29T08:30:12Z</time></trkpt><trkpt lat="42.941170" lon="-2.367163"><ele>1199.4</ele><time>2015-07-29T08:30:32Z</time></trkpt><trkpt lat="42.941151" lon="-2.367161"><ele>1197.9</ele><time>2015-07-29T08:30:48Z</time></trkpt><trkpt lat="42.941134" lon="-2.367112"><ele>1198.9</ele><time>2015-07-29T08:31:01Z</time></trkpt><trkpt lat="42.941136" lon="-2.367063"><ele>1200.3</ele><time>2015-07-29T08:31:13Z</time></trkpt><trkpt lat="42.941114" lon="-2.367018"><ele>1201.8</ele><time>2015-07-29T08:31:34Z</time></trkpt><trkpt lat="42.941087" lon="-2.366970"><ele>1201.8</ele><time>2015-07-29T08:31:40Z</time></trkpt><trkpt lat="42.941017" lon="-2.366890"><ele>1203.2</ele><time>2015-07-29T08:31:54Z</time></trkpt><trkpt lat="42.941000" lon="-2.366855"><ele>1203.7</ele><time>2015-07-29T08:31:59Z</time></trkpt><trkpt lat="42.940930" lon="-2.366803"><ele>1205.6</ele><time>2015-07-29T08:32:11Z</time></trkpt><trkpt lat="42.940903" lon="-2.366689"><ele>1208.0</ele><time>2015-07-29T08:32:26Z</time></trkpt><trkpt lat="42.940870" lon="-2.366614"><ele>1210.0</ele><time>2015-07-29T08:32:39Z</time></trkpt><trkpt lat="42.940867" lon="-2.366547"><ele>1213.3</ele><time>2015-07-29T08:32:52Z</time></trkpt><trkpt lat="42.940904" lon="-2.366471"><ele>1215.2</ele><time>2015-07-29T08:33:07Z</time></trkpt><trkpt lat="42.940928" lon="-2.366394"><ele>1215.7</ele><time>2015-07-29T08:33:20Z</time></trkpt><trkpt lat="42.940947" lon="-2.366325"><ele>1217.7</ele><time>2015-07-29T08:33:33Z</time></trkpt><trkpt lat="42.940925" lon="-2.366301"><ele>1217.7</ele><time>2015-07-29T08:33:49Z</time></trkpt><trkpt lat="42.940886" lon="-2.366353"><ele>1216.7</ele><time>2015-07-29T08:34:03Z</time></trkpt><trkpt lat="42.940823" lon="-2.366260"><ele>1217.2</ele><time>2015-07-29T08:34:15Z</time></trkpt><trkpt lat="42.940838" lon="-2.366096"><ele>1218.6</ele><time>2015-07-29T08:34:32Z</time></trkpt><trkpt lat="42.940894" lon="-2.366032"><ele>1219.6</ele><time>2015-07-29T08:34:44Z</time></trkpt><trkpt lat="42.940903" lon="-2.365991"><ele>1219.6</ele><time>2015-07-29T08:34:59Z</time></trkpt><trkpt lat="42.940886" lon="-2.365872"><ele>1218.1</ele><time>2015-07-29T08:35:15Z</time></trkpt><trkpt lat="42.940957" lon="-2.365777"><ele>1219.6</ele><time>2015-07-29T08:35:30Z</time></trkpt><trkpt lat="42.941003" lon="-2.365742"><ele>1220.1</ele><time>2015-07-29T08:35:45Z</time></trkpt><trkpt lat="42.941076" lon="-2.365697"><ele>1222.0</ele><time>2015-07-29T08:35:58Z</time></trkpt><trkpt lat="42.941160" lon="-2.365610"><ele>1224.9</ele><time>2015-07-29T08:36:14Z</time></trkpt><trkpt lat="42.941210" lon="-2.365523"><ele>1226.8</ele><time>2015-07-29T08:36:28Z</time></trkpt><trkpt lat="42.941272" lon="-2.365490"><ele>1228.2</ele><time>2015-07-29T08:36:41Z</time></trkpt><trkpt lat="42.941320" lon="-2.365449"><ele>1231.6</ele><time>2015-07-29T08:36:55Z</time></trkpt><trkpt lat="42.941376" lon="-2.365389"><ele>1232.6</ele><time>2015-07-29T08:37:11Z</time></trkpt><trkpt lat="42.941411" lon="-2.365396"><ele>1234.0</ele><time>2015-07-29T08:37:23Z</time></trkpt><trkpt lat="42.941466" lon="-2.365372"><ele>1235.0</ele><time>2015-07-29T08:37:35Z</time></trkpt><trkpt lat="42.941481" lon="-2.365333"><ele>1237.8</ele><time>2015-07-29T08:37:50Z</time></trkpt><trkpt lat="42.941509" lon="-2.365323"><ele>1238.8</ele><time>2015-07-29T08:38:04Z</time></trkpt><trkpt lat="42.941515" lon="-2.365199"><ele>1238.3</ele><time>2015-07-29T08:38:17Z</time></trkpt><trkpt lat="42.941551" lon="-2.365103"><ele>1241.2</ele><time>2015-07-29T08:38:33Z</time></trkpt><trkpt lat="42.941611" lon="-2.365113"><ele>1244.1</ele><time>2015-07-29T08:38:48Z</time></trkpt><trkpt lat="42.941647" lon="-2.365148"><ele>1247.5</ele><time>2015-07-29T08:39:03Z</time></trkpt><trkpt lat="42.941678" lon="-2.365192"><ele>1247.5</ele><time>2015-07-29T08:39:08Z</time></trkpt><trkpt lat="42.941703" lon="-2.365236"><ele>1246.0</ele><time>2015-07-29T08:39:23Z</time></trkpt><trkpt lat="42.941723" lon="-2.365285"><ele>1246.0</ele><time>2015-07-29T08:39:37Z</time></trkpt><trkpt lat="42.941732" lon="-2.365307"><ele>1249.4</ele><time>2015-07-29T08:40:03Z</time></trkpt><trkpt lat="42.941739" lon="-2.365346"><ele>1247.0</ele><time>2015-07-29T08:41:13Z</time></trkpt><trkpt lat="42.941744" lon="-2.365363"><ele>1247.0</ele><time>2015-07-29T08:41:24Z</time></trkpt><trkpt lat="42.941730" lon="-2.365378"><ele>1244.6</ele><time>2015-07-29T08:41:56Z</time></trkpt><trkpt lat="42.941723" lon="-2.365395"><ele>1244.6</ele><time>2015-07-29T08:42:14Z</time></trkpt><trkpt lat="42.941723" lon="-2.365410"><ele>1244.6</ele><time>2015-07-29T08:42:26Z</time></trkpt><trkpt lat="42.941723" lon="-2.365419"><ele>1243.6</ele><time>2015-07-29T08:42:53Z</time></trkpt><trkpt lat="42.941732" lon="-2.365427"><ele>1245.0</ele><time>2015-07-29T08:43:19Z</time></trkpt><trkpt lat="42.941746" lon="-2.365424"><ele>1245.0</ele><time>2015-07-29T08:43:49Z</time></trkpt><trkpt lat="42.941766" lon="-2.365410"><ele>1244.6</ele><time>2015-07-29T08:44:21Z</time></trkpt><trkpt lat="42.941798" lon="-2.365368"><ele>1240.7</ele><time>2015-07-29T08:55:52Z</time></trkpt><trkpt lat="42.941807" lon="-2.365326"><ele>1243.1</ele><time>2015-07-29T08:56:38Z</time></trkpt><trkpt lat="42.941834" lon="-2.365278"><ele>1244.1</ele><time>2015-07-29T08:56:51Z</time></trkpt><trkpt lat="42.941841" lon="-2.365221"><ele>1243.6</ele><time>2015-07-29T08:57:09Z</time></trkpt><trkpt lat="42.941883" lon="-2.365143"><ele>1243.1</ele><time>2015-07-29T08:57:22Z</time></trkpt><trkpt lat="42.941894" lon="-2.365094"><ele>1244.1</ele><time>2015-07-29T08:57:36Z</time></trkpt><trkpt lat="42.941869" lon="-2.365011"><ele>1243.6</ele><time>2015-07-29T08:57:39Z</time></trkpt><trkpt lat="42.941834" lon="-2.364942"><ele>1243.1</ele><time>2015-07-29T08:57:53Z</time></trkpt><trkpt lat="42.941846" lon="-2.364877"><ele>1243.1</ele><time>2015-07-29T08:58:01Z</time></trkpt><trkpt lat="42.941875" lon="-2.364805"><ele>1242.6</ele><time>2015-07-29T08:58:10Z</time></trkpt><trkpt lat="42.941868" lon="-2.364698"><ele>1242.6</ele><time>2015-07-29T08:58:25Z</time></trkpt><trkpt lat="42.941846" lon="-2.364629"><ele>1240.7</ele><time>2015-07-29T08:58:42Z</time></trkpt><trkpt lat="42.941857" lon="-2.364558"><ele>1241.7</ele><time>2015-07-29T08:58:55Z</time></trkpt><trkpt lat="42.941884" lon="-2.364531"><ele>1240.7</ele><time>2015-07-29T08:59:08Z</time></trkpt><trkpt lat="42.941922" lon="-2.364499"><ele>1241.2</ele><time>2015-07-29T08:59:20Z</time></trkpt><trkpt lat="42.941978" lon="-2.364490"><ele>1242.2</ele><time>2015-07-29T08:59:26Z</time></trkpt><trkpt lat="42.942010" lon="-2.364495"><ele>1244.6</ele><time>2015-07-29T08:59:42Z</time></trkpt><trkpt lat="42.942055" lon="-2.364485"><ele>1244.6</ele><time>2015-07-29T08:59:48Z</time></trkpt><trkpt lat="42.942089" lon="-2.364477"><ele>1244.1</ele><time>2015-07-29T08:59:54Z</time></trkpt><trkpt lat="42.942170" lon="-2.364460"><ele>1244.1</ele><time>2015-07-29T08:59:57Z</time></trkpt><trkpt lat="42.942229" lon="-2.364465"><ele>1243.1</ele><time>2015-07-29T09:00:09Z</time></trkpt><trkpt lat="42.942276" lon="-2.364455"><ele>1240.7</ele><time>2015-07-29T09:00:28Z</time></trkpt><trkpt lat="42.942337" lon="-2.364455"><ele>1239.3</ele><time>2015-07-29T09:00:42Z</time></trkpt><trkpt lat="42.942380" lon="-2.364429"><ele>1237.8</ele><time>2015-07-29T09:00:56Z</time></trkpt><trkpt lat="42.942430" lon="-2.364414"><ele>1237.8</ele><time>2015-07-29T09:01:10Z</time></trkpt><trkpt lat="42.942482" lon="-2.364409"><ele>1237.4</ele><time>2015-07-29T09:01:27Z</time></trkpt><trkpt lat="42.942531" lon="-2.364389"><ele>1236.4</ele><time>2015-07-29T09:01:36Z</time></trkpt><trkpt lat="42.942578" lon="-2.364384"><ele>1235.9</ele><time>2015-07-29T09:01:53Z</time></trkpt><trkpt lat="42.942625" lon="-2.364371"><ele>1235.9</ele><time>2015-07-29T09:02:12Z</time></trkpt><trkpt lat="42.942630" lon="-2.364362"><ele>1235.9</ele><time>2015-07-29T09:02:13Z</time></trkpt><trkpt lat="42.942696" lon="-2.364300"><ele>1235.0</ele><time>2015-07-29T09:02:22Z</time></trkpt><trkpt lat="42.942777" lon="-2.364277"><ele>1235.0</ele><time>2015-07-29T09:02:33Z</time></trkpt><trkpt lat="42.942905" lon="-2.364252"><ele>1233.5</ele><time>2015-07-29T09:02:47Z</time></trkpt><trkpt lat="42.943000" lon="-2.364222"><ele>1232.6</ele><time>2015-07-29T09:02:56Z</time></trkpt><trkpt lat="42.943173" lon="-2.364179"><ele>1231.1</ele><time>2015-07-29T09:03:12Z</time></trkpt><trkpt lat="42.943295" lon="-2.364093"><ele>1227.7</ele><time>2015-07-29T09:03:28Z</time></trkpt><trkpt lat="42.943384" lon="-2.364023"><ele>1225.8</ele><time>2015-07-29T09:03:41Z</time></trkpt><trkpt lat="42.943450" lon="-2.363954"><ele>1223.4</ele><time>2015-07-29T09:03:56Z</time></trkpt><trkpt lat="42.943554" lon="-2.363906"><ele>1221.5</ele><time>2015-07-29T09:04:09Z</time></trkpt><trkpt lat="42.943567" lon="-2.363889"><ele>1221.0</ele><time>2015-07-29T09:04:11Z</time></trkpt><trkpt lat="42.943644" lon="-2.363828"><ele>1219.6</ele><time>2015-07-29T09:04:26Z</time></trkpt><trkpt lat="42.943752" lon="-2.363731"><ele>1216.2</ele><time>2015-07-29T09:04:42Z</time></trkpt><trkpt lat="42.943884" lon="-2.363649"><ele>1214.3</ele><time>2015-07-29T09:04:59Z</time></trkpt><trkpt lat="42.943974" lon="-2.363554"><ele>1211.9</ele><time>2015-07-29T09:05:16Z</time></trkpt><trkpt lat="42.944017" lon="-2.363567"><ele>1210.0</ele><time>2015-07-29T09:05:31Z</time></trkpt><trkpt lat="42.944079" lon="-2.363584"><ele>1207.6</ele><time>2015-07-29T09:05:43Z</time></trkpt><trkpt lat="42.944166" lon="-2.363489"><ele>1206.1</ele><time>2015-07-29T09:06:00Z</time></trkpt><trkpt lat="42.944281" lon="-2.363394"><ele>1202.3</ele><time>2015-07-29T09:06:16Z</time></trkpt><trkpt lat="42.944411" lon="-2.363402"><ele>1199.9</ele><time>2015-07-29T09:06:32Z</time></trkpt><trkpt lat="42.944543" lon="-2.363385"><ele>1197.9</ele><time>2015-07-29T09:06:51Z</time></trkpt><trkpt lat="42.944671" lon="-2.363355"><ele>1197.9</ele><time>2015-07-29T09:07:10Z</time></trkpt><trkpt lat="42.944803" lon="-2.363331"><ele>1196.0</ele><time>2015-07-29T09:07:24Z</time></trkpt><trkpt lat="42.944906" lon="-2.363353"><ele>1192.7</ele><time>2015-07-29T09:07:40Z</time></trkpt><trkpt lat="42.944930" lon="-2.363348"><ele>1191.2</ele><time>2015-07-29T09:07:55Z</time></trkpt><trkpt lat="42.945018" lon="-2.363300"><ele>1192.2</ele><time>2015-07-29T09:08:11Z</time></trkpt><trkpt lat="42.945192" lon="-2.363224"><ele>1193.1</ele><time>2015-07-29T09:08:31Z</time></trkpt><trkpt lat="42.945282" lon="-2.363188"><ele>1194.1</ele><time>2015-07-29T09:08:48Z</time></trkpt><trkpt lat="42.945390" lon="-2.363122"><ele>1195.1</ele><time>2015-07-29T09:09:04Z</time></trkpt><trkpt lat="42.945484" lon="-2.363102"><ele>1195.1</ele><time>2015-07-29T09:09:22Z</time></trkpt><trkpt lat="42.945602" lon="-2.363107"><ele>1197.5</ele><time>2015-07-29T09:09:39Z</time></trkpt><trkpt lat="42.945704" lon="-2.363074"><ele>1200.8</ele><time>2015-07-29T09:09:54Z</time></trkpt><trkpt lat="42.945812" lon="-2.363008"><ele>1202.8</ele><time>2015-07-29T09:10:12Z</time></trkpt><trkpt lat="42.945838" lon="-2.362963"><ele>1203.2</ele><time>2015-07-29T09:10:27Z</time></trkpt><trkpt lat="42.945893" lon="-2.362943"><ele>1204.2</ele><time>2015-07-29T09:10:43Z</time></trkpt><trkpt lat="42.946001" lon="-2.362877"><ele>1205.2</ele><time>2015-07-29T09:10:59Z</time></trkpt><trkpt lat="42.946067" lon="-2.362887"><ele>1206.6</ele><time>2015-07-29T09:11:18Z</time></trkpt><trkpt lat="42.946133" lon="-2.362799"><ele>1208.5</ele><time>2015-07-29T09:11:36Z</time></trkpt><trkpt lat="42.946174" lon="-2.362753"><ele>1210.4</ele><time>2015-07-29T09:11:52Z</time></trkpt><trkpt lat="42.946206" lon="-2.362761"><ele>1212.4</ele><time>2015-07-29T09:12:10Z</time></trkpt><trkpt lat="42.946290" lon="-2.362818"><ele>1214.3</ele><time>2015-07-29T09:12:27Z</time></trkpt><trkpt lat="42.946378" lon="-2.362762"><ele>1217.2</ele><time>2015-07-29T09:12:42Z</time></trkpt><trkpt lat="42.946437" lon="-2.362689"><ele>1218.6</ele><time>2015-07-29T09:12:56Z</time></trkpt><trkpt lat="42.946490" lon="-2.362715"><ele>1219.6</ele><time>2015-07-29T09:13:10Z</time></trkpt><trkpt lat="42.946541" lon="-2.362717"><ele>1222.5</ele><time>2015-07-29T09:13:26Z</time></trkpt><trkpt lat="42.946596" lon="-2.362720"><ele>1225.8</ele><time>2015-07-29T09:13:39Z</time></trkpt><trkpt lat="42.946637" lon="-2.362732"><ele>1229.7</ele><time>2015-07-29T09:13:56Z</time></trkpt><trkpt lat="42.946658" lon="-2.362766"><ele>1231.1</ele><time>2015-07-29T09:14:10Z</time></trkpt><trkpt lat="42.946727" lon="-2.362808"><ele>1230.6</ele><time>2015-07-29T09:14:24Z</time></trkpt><trkpt lat="42.946773" lon="-2.362808"><ele>1231.1</ele><time>2015-07-29T09:14:37Z</time></trkpt><trkpt lat="42.946799" lon="-2.362773"><ele>1235.0</ele><time>2015-07-29T09:14:49Z</time></trkpt><trkpt lat="42.946816" lon="-2.362756"><ele>1236.9</ele><time>2015-07-29T09:15:05Z</time></trkpt><trkpt lat="42.946832" lon="-2.362742"><ele>1237.8</ele><time>2015-07-29T09:15:21Z</time></trkpt><trkpt lat="42.946841" lon="-2.362727"><ele>1238.3</ele><time>2015-07-29T09:15:40Z</time></trkpt><trkpt lat="42.946850" lon="-2.362712"><ele>1238.3</ele><time>2015-07-29T09:16:05Z</time></trkpt><trkpt lat="42.946877" lon="-2.362707"><ele>1238.3</ele><time>2015-07-29T09:16:29Z</time></trkpt><trkpt lat="42.946900" lon="-2.362722"><ele>1237.4</ele><time>2015-07-29T09:16:46Z</time></trkpt><trkpt lat="42.946916" lon="-2.362744"><ele>1236.4</ele><time>2015-07-29T09:17:06Z</time></trkpt><trkpt lat="42.946943" lon="-2.362722"><ele>1237.8</ele><time>2015-07-29T09:17:25Z</time></trkpt><trkpt lat="42.946976" lon="-2.362705"><ele>1238.8</ele><time>2015-07-29T09:17:39Z</time></trkpt><trkpt lat="42.947004" lon="-2.362671"><ele>1241.7</ele><time>2015-07-29T09:17:53Z</time></trkpt><trkpt lat="42.947049" lon="-2.362632"><ele>1240.7</ele><time>2015-07-29T09:18:13Z</time></trkpt><trkpt lat="42.947085" lon="-2.362619"><ele>1239.8</ele><time>2015-07-29T09:18:28Z</time></trkpt><trkpt lat="42.947144" lon="-2.362585"><ele>1236.9</ele><time>2015-07-29T09:18:44Z</time></trkpt><trkpt lat="42.947213" lon="-2.362517"><ele>1235.0</ele><time>2015-07-29T09:19:01Z</time></trkpt><trkpt lat="42.947264" lon="-2.362479"><ele>1234.0</ele><time>2015-07-29T09:19:18Z</time></trkpt><trkpt lat="42.947375" lon="-2.362408"><ele>1231.6</ele><time>2015-07-29T09:19:32Z</time></trkpt><trkpt lat="42.947528" lon="-2.362290"><ele>1230.1</ele><time>2015-07-29T09:19:48Z</time></trkpt><trkpt lat="42.947641" lon="-2.362137"><ele>1228.2</ele><time>2015-07-29T09:20:05Z</time></trkpt><trkpt lat="42.947649" lon="-2.362005"><ele>1225.8</ele><time>2015-07-29T09:20:21Z</time></trkpt><trkpt lat="42.947637" lon="-2.361940"><ele>1224.9</ele><time>2015-07-29T09:20:34Z</time></trkpt><trkpt lat="42.947648" lon="-2.361864"><ele>1223.4</ele><time>2015-07-29T09:20:49Z</time></trkpt><trkpt lat="42.947650" lon="-2.361792"><ele>1220.1</ele><time>2015-07-29T09:21:05Z</time></trkpt><trkpt lat="42.947664" lon="-2.361665"><ele>1215.7</ele><time>2015-07-29T09:21:19Z</time></trkpt><trkpt lat="42.947710" lon="-2.361622"><ele>1211.9</ele><time>2015-07-29T09:21:36Z</time></trkpt><trkpt lat="42.947725" lon="-2.361566"><ele>1209.0</ele><time>2015-07-29T09:21:49Z</time></trkpt><trkpt lat="42.947713" lon="-2.361459"><ele>1207.1</ele><time>2015-07-29T09:22:03Z</time></trkpt><trkpt lat="42.947728" lon="-2.361346"><ele>1203.7</ele><time>2015-07-29T09:22:18Z</time></trkpt><trkpt lat="42.947715" lon="-2.361226"><ele>1203.2</ele><time>2015-07-29T09:22:34Z</time></trkpt><trkpt lat="42.947735" lon="-2.361187"><ele>1202.8</ele><time>2015-07-29T09:22:39Z</time></trkpt><trkpt lat="42.947681" lon="-2.361034"><ele>1199.4</ele><time>2015-07-29T09:22:56Z</time></trkpt><trkpt lat="42.947575" lon="-2.360871"><ele>1195.1</ele><time>2015-07-29T09:23:12Z</time></trkpt><trkpt lat="42.947530" lon="-2.360754"><ele>1190.3</ele><time>2015-07-29T09:23:27Z</time></trkpt><trkpt lat="42.947530" lon="-2.360584"><ele>1188.8</ele><time>2015-07-29T09:23:41Z</time></trkpt><trkpt lat="42.947514" lon="-2.360516"><ele>1190.3</ele><time>2015-07-29T09:23:45Z</time></trkpt><trkpt lat="42.947430" lon="-2.360251"><ele>1189.8</ele><time>2015-07-29T09:24:04Z</time></trkpt><trkpt lat="42.947415" lon="-2.360176"><ele>1189.3</ele><time>2015-07-29T09:24:16Z</time></trkpt><trkpt lat="42.947482" lon="-2.360042"><ele>1184.5</ele><time>2015-07-29T09:24:33Z</time></trkpt><trkpt lat="42.947553" lon="-2.359950"><ele>1180.6</ele><time>2015-07-29T09:24:48Z</time></trkpt><trkpt lat="42.947626" lon="-2.359839"><ele>1176.8</ele><time>2015-07-29T09:25:02Z</time></trkpt><trkpt lat="42.947712" lon="-2.359741"><ele>1171.0</ele><time>2015-07-29T09:25:18Z</time></trkpt><trkpt lat="42.947777" lon="-2.359663"><ele>1164.3</ele><time>2015-07-29T09:25:34Z</time></trkpt><trkpt lat="42.947832" lon="-2.359521"><ele>1160.5</ele><time>2015-07-29T09:25:48Z</time></trkpt><trkpt lat="42.947851" lon="-2.359508"><ele>1160.0</ele><time>2015-07-29T09:25:51Z</time></trkpt><trkpt lat="42.947905" lon="-2.359378"><ele>1159.5</ele><time>2015-07-29T09:26:04Z</time></trkpt><trkpt lat="42.947931" lon="-2.359311"><ele>1158.5</ele><time>2015-07-29T09:26:10Z</time></trkpt><trkpt lat="42.948017" lon="-2.359124"><ele>1154.7</ele><time>2015-07-29T09:26:26Z</time></trkpt><trkpt lat="42.948098" lon="-2.358988"><ele>1153.7</ele><time>2015-07-29T09:26:38Z</time></trkpt><trkpt lat="42.948126" lon="-2.358892"><ele>1154.2</ele><time>2015-07-29T09:26:44Z</time></trkpt><trkpt lat="42.948160" lon="-2.358819"><ele>1155.2</ele><time>2015-07-29T09:26:48Z</time></trkpt><trkpt lat="42.948270" lon="-2.358517"><ele>1157.1</ele><time>2015-07-29T09:27:06Z</time></trkpt><trkpt lat="42.948302" lon="-2.358449"><ele>1159.0</ele><time>2015-07-29T09:27:13Z</time></trkpt><trkpt lat="42.948334" lon="-2.358375"><ele>1159.0</ele><time>2015-07-29T09:27:15Z</time></trkpt><trkpt lat="42.948365" lon="-2.358327"><ele>1159.0</ele><time>2015-07-29T09:27:22Z</time></trkpt><trkpt lat="42.948408" lon="-2.358227"><ele>1160.9</ele><time>2015-07-29T09:27:39Z</time></trkpt><trkpt lat="42.948404" lon="-2.358155"><ele>1161.9</ele><time>2015-07-29T09:27:57Z</time></trkpt><trkpt lat="42.948402" lon="-2.358134"><ele>1163.3</ele><time>2015-07-29T09:28:23Z</time></trkpt><trkpt lat="42.948396" lon="-2.358072"><ele>1161.9</ele><time>2015-07-29T09:28:39Z</time></trkpt><trkpt lat="42.948383" lon="-2.357926"><ele>1162.4</ele><time>2015-07-29T09:28:54Z</time></trkpt><trkpt lat="42.948361" lon="-2.357733"><ele>1162.9</ele><time>2015-07-29T09:29:12Z</time></trkpt><trkpt lat="42.948369" lon="-2.357671"><ele>1162.4</ele><time>2015-07-29T09:29:18Z</time></trkpt><trkpt lat="42.948382" lon="-2.357507"><ele>1161.9</ele><time>2015-07-29T09:29:32Z</time></trkpt><trkpt lat="42.948385" lon="-2.357348"><ele>1163.8</ele><time>2015-07-29T09:29:46Z</time></trkpt><trkpt lat="42.948420" lon="-2.357242"><ele>1164.3</ele><time>2015-07-29T09:30:01Z</time></trkpt><trkpt lat="42.948467" lon="-2.357088"><ele>1167.2</ele><time>2015-07-29T09:30:17Z</time></trkpt><trkpt lat="42.948557" lon="-2.356924"><ele>1166.7</ele><time>2015-07-29T09:30:32Z</time></trkpt><trkpt lat="42.948630" lon="-2.356809"><ele>1170.5</ele><time>2015-07-29T09:30:49Z</time></trkpt><trkpt lat="42.948697" lon="-2.356736"><ele>1170.5</ele><time>2015-07-29T09:31:03Z</time></trkpt><trkpt lat="42.948800" lon="-2.356654"><ele>1172.0</ele><time>2015-07-29T09:31:19Z</time></trkpt><trkpt lat="42.948889" lon="-2.356534"><ele>1172.5</ele><time>2015-07-29T09:31:35Z</time></trkpt><trkpt lat="42.948882" lon="-2.356452"><ele>1173.4</ele><time>2015-07-29T09:31:51Z</time></trkpt><trkpt lat="42.948893" lon="-2.356302"><ele>1176.3</ele><time>2015-07-29T09:32:06Z</time></trkpt><trkpt lat="42.948945" lon="-2.356173"><ele>1179.2</ele><time>2015-07-29T09:32:23Z</time></trkpt><trkpt lat="42.948999" lon="-2.356079"><ele>1180.6</ele><time>2015-07-29T09:32:42Z</time></trkpt><trkpt lat="42.949051" lon="-2.355956"><ele>1184.0</ele><time>2015-07-29T09:32:59Z</time></trkpt><trkpt lat="42.949061" lon="-2.355809"><ele>1187.9</ele><time>2015-07-29T09:33:17Z</time></trkpt><trkpt lat="42.949105" lon="-2.355687"><ele>1189.8</ele><time>2015-07-29T09:33:33Z</time></trkpt><trkpt lat="42.949157" lon="-2.355585"><ele>1190.7</ele><time>2015-07-29T09:33:46Z</time></trkpt><trkpt lat="42.949194" lon="-2.355449"><ele>1195.5</ele><time>2015-07-29T09:34:04Z</time></trkpt><trkpt lat="42.949244" lon="-2.355356"><ele>1198.4</ele><time>2015-07-29T09:34:17Z</time></trkpt><trkpt lat="42.949276" lon="-2.355219"><ele>1201.3</ele><time>2015-07-29T09:34:32Z</time></trkpt><trkpt lat="42.949344" lon="-2.355132"><ele>1201.3</ele><time>2015-07-29T09:34:47Z</time></trkpt><trkpt lat="42.949420" lon="-2.355034"><ele>1203.7</ele><time>2015-07-29T09:35:04Z</time></trkpt><trkpt lat="42.949493" lon="-2.355017"><ele>1202.8</ele><time>2015-07-29T09:35:19Z</time></trkpt><trkpt lat="42.949570" lon="-2.354957"><ele>1204.7</ele><time>2015-07-29T09:35:33Z</time></trkpt><trkpt lat="42.949667" lon="-2.354935"><ele>1207.1</ele><time>2015-07-29T09:35:49Z</time></trkpt><trkpt lat="42.949793" lon="-2.354904"><ele>1206.1</ele><time>2015-07-29T09:36:05Z</time></trkpt><trkpt lat="42.949851" lon="-2.354903"><ele>1208.0</ele><time>2015-07-29T09:36:20Z</time></trkpt><trkpt lat="42.949943" lon="-2.354899"><ele>1210.0</ele><time>2015-07-29T09:36:36Z</time></trkpt><trkpt lat="42.950020" lon="-2.354883"><ele>1209.5</ele><time>2015-07-29T09:36:51Z</time></trkpt><trkpt lat="42.950065" lon="-2.354877"><ele>1210.9</ele><time>2015-07-29T09:37:06Z</time></trkpt><trkpt lat="42.950106" lon="-2.354901"><ele>1212.8</ele><time>2015-07-29T09:37:22Z</time></trkpt><trkpt lat="42.950150" lon="-2.354926"><ele>1214.3</ele><time>2015-07-29T09:37:38Z</time></trkpt><trkpt lat="42.950171" lon="-2.354943"><ele>1213.8</ele><time>2015-07-29T09:37:53Z</time></trkpt><trkpt lat="42.950203" lon="-2.354934"><ele>1213.8</ele><time>2015-07-29T09:38:17Z</time></trkpt><trkpt lat="42.950225" lon="-2.354930"><ele>1211.9</ele><time>2015-07-29T09:38:40Z</time></trkpt><trkpt lat="42.950254" lon="-2.354914"><ele>1211.4</ele><time>2015-07-29T09:38:48Z</time></trkpt><trkpt lat="42.950272" lon="-2.354901"><ele>1211.9</ele><time>2015-07-29T09:39:02Z</time></trkpt><trkpt lat="42.950279" lon="-2.354871"><ele>1210.4</ele><time>2015-07-29T09:39:16Z</time></trkpt><trkpt lat="42.950266" lon="-2.354859"><ele>1212.4</ele><time>2015-07-29T09:39:38Z</time></trkpt><trkpt lat="42.950252" lon="-2.354793"><ele>1214.3</ele><time>2015-07-29T09:40:05Z</time></trkpt><trkpt lat="42.950200" lon="-2.354740"><ele>1213.8</ele><time>2015-07-29T09:40:26Z</time></trkpt><trkpt lat="42.950178" lon="-2.354682"><ele>1213.8</ele><time>2015-07-29T09:40:46Z</time></trkpt><trkpt lat="42.950148" lon="-2.354631"><ele>1216.2</ele><time>2015-07-29T09:41:01Z</time></trkpt><trkpt lat="42.950101" lon="-2.354629"><ele>1214.3</ele><time>2015-07-29T09:41:17Z</time></trkpt><trkpt lat="42.950058" lon="-2.354602"><ele>1213.8</ele><time>2015-07-29T09:41:32Z</time></trkpt><trkpt lat="42.950015" lon="-2.354569"><ele>1211.9</ele><time>2015-07-29T09:41:46Z</time></trkpt><trkpt lat="42.949975" lon="-2.354525"><ele>1214.3</ele><time>2015-07-29T09:42:16Z</time></trkpt><trkpt lat="42.949912" lon="-2.354481"><ele>1216.7</ele><time>2015-07-29T09:42:32Z</time></trkpt><trkpt lat="42.949841" lon="-2.354430"><ele>1217.2</ele><time>2015-07-29T09:42:47Z</time></trkpt><trkpt lat="42.949784" lon="-2.354385"><ele>1216.2</ele><time>2015-07-29T09:43:02Z</time></trkpt><trkpt lat="42.949655" lon="-2.354306"><ele>1216.7</ele><time>2015-07-29T09:43:18Z</time></trkpt><trkpt lat="42.949559" lon="-2.354205"><ele>1214.8</ele><time>2015-07-29T09:43:34Z</time></trkpt><trkpt lat="42.949430" lon="-2.354074"><ele>1212.4</ele><time>2015-07-29T09:43:49Z</time></trkpt><trkpt lat="42.949310" lon="-2.353953"><ele>1211.4</ele><time>2015-07-29T09:44:04Z</time></trkpt><trkpt lat="42.949259" lon="-2.353907"><ele>1210.9</ele><time>2015-07-29T09:44:10Z</time></trkpt><trkpt lat="42.949147" lon="-2.353804"><ele>1212.4</ele><time>2015-07-29T09:44:26Z</time></trkpt><trkpt lat="42.949031" lon="-2.353696"><ele>1207.1</ele><time>2015-07-29T09:44:41Z</time></trkpt><trkpt lat="42.948945" lon="-2.353612"><ele>1206.1</ele><time>2015-07-29T09:44:55Z</time></trkpt><trkpt lat="42.948824" lon="-2.353477"><ele>1205.2</ele><time>2015-07-29T09:45:10Z</time></trkpt><trkpt lat="42.948745" lon="-2.353393"><ele>1202.8</ele><time>2015-07-29T09:45:23Z</time></trkpt><trkpt lat="42.948625" lon="-2.353284"><ele>1197.9</ele><time>2015-07-29T09:45:37Z</time></trkpt><trkpt lat="42.948504" lon="-2.353133"><ele>1194.6</ele><time>2015-07-29T09:45:52Z</time></trkpt><trkpt lat="42.948378" lon="-2.353027"><ele>1191.7</ele><time>2015-07-29T09:46:08Z</time></trkpt><trkpt lat="42.948259" lon="-2.352958"><ele>1190.7</ele><time>2015-07-29T09:46:23Z</time></trkpt><trkpt lat="42.948154" lon="-2.352875"><ele>1191.2</ele><time>2015-07-29T09:46:37Z</time></trkpt><trkpt lat="42.948049" lon="-2.352751"><ele>1189.3</ele><time>2015-07-29T09:46:52Z</time></trkpt><trkpt lat="42.947955" lon="-2.352677"><ele>1185.9</ele><time>2015-07-29T09:47:08Z</time></trkpt><trkpt lat="42.947876" lon="-2.352665"><ele>1184.5</ele><time>2015-07-29T09:47:22Z</time></trkpt><trkpt lat="42.947810" lon="-2.352637"><ele>1182.1</ele><time>2015-07-29T09:47:36Z</time></trkpt><trkpt lat="42.947732" lon="-2.352658"><ele>1180.6</ele><time>2015-07-29T09:47:52Z</time></trkpt><trkpt lat="42.947666" lon="-2.352657"><ele>1178.7</ele><time>2015-07-29T09:48:09Z</time></trkpt><trkpt lat="42.947575" lon="-2.352680"><ele>1176.8</ele><time>2015-07-29T09:48:24Z</time></trkpt><trkpt lat="42.947483" lon="-2.352676"><ele>1171.5</ele><time>2015-07-29T09:48:38Z</time></trkpt><trkpt lat="42.947370" lon="-2.352637"><ele>1166.7</ele><time>2015-07-29T09:48:53Z</time></trkpt><trkpt lat="42.947243" lon="-2.352562"><ele>1162.4</ele><time>2015-07-29T09:49:07Z</time></trkpt><trkpt lat="42.947131" lon="-2.352512"><ele>1160.5</ele><time>2015-07-29T09:49:21Z</time></trkpt><trkpt lat="42.946987" lon="-2.352465"><ele>1157.6</ele><time>2015-07-29T09:49:35Z</time></trkpt><trkpt lat="42.946940" lon="-2.352424"><ele>1159.0</ele><time>2015-07-29T09:49:40Z</time></trkpt><trkpt lat="42.946905" lon="-2.352404"><ele>1157.6</ele><time>2015-07-29T09:49:54Z</time></trkpt><trkpt lat="42.946868" lon="-2.352366"><ele>1157.1</ele><time>2015-07-29T09:50:13Z</time></trkpt><trkpt lat="42.946855" lon="-2.352329"><ele>1158.1</ele><time>2015-07-29T09:50:30Z</time></trkpt><trkpt lat="42.946794" lon="-2.352286"><ele>1156.6</ele><time>2015-07-29T09:50:54Z</time></trkpt><trkpt lat="42.946685" lon="-2.352253"><ele>1152.3</ele><time>2015-07-29T09:51:07Z</time></trkpt><trkpt lat="42.946526" lon="-2.352222"><ele>1148.4</ele><time>2015-07-29T09:51:24Z</time></trkpt><trkpt lat="42.946394" lon="-2.352162"><ele>1152.3</ele><time>2015-07-29T09:51:39Z</time></trkpt><trkpt lat="42.946322" lon="-2.352127"><ele>1152.8</ele><time>2015-07-29T09:51:56Z</time></trkpt><trkpt lat="42.946282" lon="-2.352116"><ele>1156.1</ele><time>2015-07-29T09:52:12Z</time></trkpt><trkpt lat="42.946272" lon="-2.352100"><ele>1157.1</ele><time>2015-07-29T09:52:26Z</time></trkpt><trkpt lat="42.946251" lon="-2.352090"><ele>1162.9</ele><time>2015-07-29T09:52:52Z</time></trkpt><trkpt lat="42.946207" lon="-2.352005"><ele>1162.4</ele><time>2015-07-29T09:53:05Z</time></trkpt><trkpt lat="42.946111" lon="-2.351967"><ele>1161.9</ele><time>2015-07-29T09:53:20Z</time></trkpt><trkpt lat="42.946018" lon="-2.351935"><ele>1160.9</ele><time>2015-07-29T09:53:33Z</time></trkpt><trkpt lat="42.945897" lon="-2.351853"><ele>1160.9</ele><time>2015-07-29T09:53:47Z</time></trkpt><trkpt lat="42.945805" lon="-2.351781"><ele>1161.4</ele><time>2015-07-29T09:54:01Z</time></trkpt><trkpt lat="42.945703" lon="-2.351627"><ele>1161.9</ele><time>2015-07-29T09:54:19Z</time></trkpt><trkpt lat="42.945613" lon="-2.351606"><ele>1162.4</ele><time>2015-07-29T09:54:33Z</time></trkpt><trkpt lat="42.945514" lon="-2.351517"><ele>1163.3</ele><time>2015-07-29T09:54:50Z</time></trkpt><trkpt lat="42.945439" lon="-2.351438"><ele>1165.7</ele><time>2015-07-29T09:55:05Z</time></trkpt><trkpt lat="42.945374" lon="-2.351395"><ele>1167.2</ele><time>2015-07-29T09:55:19Z</time></trkpt><trkpt lat="42.945253" lon="-2.351339"><ele>1169.1</ele><time>2015-07-29T09:55:38Z</time></trkpt><trkpt lat="42.945172" lon="-2.351251"><ele>1171.5</ele><time>2015-07-29T09:55:55Z</time></trkpt><trkpt lat="42.945103" lon="-2.351181"><ele>1172.5</ele><time>2015-07-29T09:56:10Z</time></trkpt><trkpt lat="42.945027" lon="-2.351133"><ele>1172.5</ele><time>2015-07-29T09:56:25Z</time></trkpt><trkpt lat="42.944908" lon="-2.351091"><ele>1174.9</ele><time>2015-07-29T09:56:41Z</time></trkpt><trkpt lat="42.944821" lon="-2.351030"><ele>1179.2</ele><time>2015-07-29T09:56:58Z</time></trkpt><trkpt lat="42.944752" lon="-2.350927"><ele>1183.0</ele><time>2015-07-29T09:57:12Z</time></trkpt><trkpt lat="42.944676" lon="-2.350863"><ele>1183.5</ele><time>2015-07-29T09:57:28Z</time></trkpt><trkpt lat="42.944545" lon="-2.350771"><ele>1186.4</ele><time>2015-07-29T09:57:46Z</time></trkpt><trkpt lat="42.944449" lon="-2.350738"><ele>1187.4</ele><time>2015-07-29T09:58:02Z</time></trkpt><trkpt lat="42.944352" lon="-2.350719"><ele>1187.4</ele><time>2015-07-29T09:58:17Z</time></trkpt><trkpt lat="42.944240" lon="-2.350736"><ele>1189.8</ele><time>2015-07-29T09:58:34Z</time></trkpt><trkpt lat="42.944124" lon="-2.350740"><ele>1191.2</ele><time>2015-07-29T09:58:50Z</time></trkpt><trkpt lat="42.944009" lon="-2.350738"><ele>1192.7</ele><time>2015-07-29T09:59:07Z</time></trkpt><trkpt lat="42.943903" lon="-2.350742"><ele>1194.6</ele><time>2015-07-29T09:59:21Z</time></trkpt><trkpt lat="42.943790" lon="-2.350739"><ele>1195.1</ele><time>2015-07-29T09:59:37Z</time></trkpt><trkpt lat="42.943669" lon="-2.350754"><ele>1199.9</ele><time>2015-07-29T09:59:54Z</time></trkpt><trkpt lat="42.943540" lon="-2.350732"><ele>1202.3</ele><time>2015-07-29T10:00:09Z</time></trkpt><trkpt lat="42.943397" lon="-2.350750"><ele>1203.7</ele><time>2015-07-29T10:00:27Z</time></trkpt><trkpt lat="42.943292" lon="-2.350764"><ele>1205.6</ele><time>2015-07-29T10:00:42Z</time></trkpt><trkpt lat="42.943165" lon="-2.350816"><ele>1206.6</ele><time>2015-07-29T10:00:59Z</time></trkpt><trkpt lat="42.943003" lon="-2.350836"><ele>1209.0</ele><time>2015-07-29T10:01:18Z</time></trkpt><trkpt lat="42.942869" lon="-2.350839"><ele>1212.4</ele><time>2015-07-29T10:01:36Z</time></trkpt><trkpt lat="42.942745" lon="-2.350836"><ele>1215.2</ele><time>2015-07-29T10:01:53Z</time></trkpt><trkpt lat="42.942648" lon="-2.350781"><ele>1215.7</ele><time>2015-07-29T10:02:07Z</time></trkpt><trkpt lat="42.942526" lon="-2.350628"><ele>1218.1</ele><time>2015-07-29T10:02:24Z</time></trkpt><trkpt lat="42.942451" lon="-2.350531"><ele>1220.1</ele><time>2015-07-29T10:02:40Z</time></trkpt><trkpt lat="42.942365" lon="-2.350498"><ele>1221.0</ele><time>2015-07-29T10:02:57Z</time></trkpt><trkpt lat="42.942258" lon="-2.350441"><ele>1225.3</ele><time>2015-07-29T10:03:12Z</time></trkpt><trkpt lat="42.942186" lon="-2.350372"><ele>1227.7</ele><time>2015-07-29T10:03:26Z</time></trkpt><trkpt lat="42.942105" lon="-2.350233"><ele>1228.7</ele><time>2015-07-29T10:03:44Z</time></trkpt><trkpt lat="42.942018" lon="-2.350159"><ele>1229.2</ele><time>2015-07-29T10:03:58Z</time></trkpt><trkpt lat="42.941890" lon="-2.350044"><ele>1230.6</ele><time>2015-07-29T10:04:15Z</time></trkpt><trkpt lat="42.941780" lon="-2.349947"><ele>1231.6</ele><time>2015-07-29T10:04:30Z</time></trkpt><trkpt lat="42.941700" lon="-2.349880"><ele>1232.1</ele><time>2015-07-29T10:04:46Z</time></trkpt><trkpt lat="42.941608" lon="-2.349818"><ele>1232.6</ele><time>2015-07-29T10:05:02Z</time></trkpt><trkpt lat="42.941492" lon="-2.349714"><ele>1233.0</ele><time>2015-07-29T10:05:18Z</time></trkpt><trkpt lat="42.941358" lon="-2.349681"><ele>1236.4</ele><time>2015-07-29T10:05:32Z</time></trkpt><trkpt lat="42.941235" lon="-2.349641"><ele>1242.2</ele><time>2015-07-29T10:05:46Z</time></trkpt><trkpt lat="42.941131" lon="-2.349568"><ele>1248.4</ele><time>2015-07-29T10:06:01Z</time></trkpt><trkpt lat="42.941088" lon="-2.349551"><ele>1249.4</ele><time>2015-07-29T10:06:18Z</time></trkpt><trkpt lat="42.941066" lon="-2.349543"><ele>1250.8</ele><time>2015-07-29T10:06:30Z</time></trkpt><trkpt lat="42.940983" lon="-2.349514"><ele>1253.7</ele><time>2015-07-29T10:06:43Z</time></trkpt><trkpt lat="42.940892" lon="-2.349429"><ele>1257.5</ele><time>2015-07-29T10:06:58Z</time></trkpt><trkpt lat="42.940808" lon="-2.349341"><ele>1260.4</ele><time>2015-07-29T10:07:13Z</time></trkpt><trkpt lat="42.940754" lon="-2.349281"><ele>1262.4</ele><time>2015-07-29T10:07:27Z</time></trkpt><trkpt lat="42.940735" lon="-2.349263"><ele>1263.8</ele><time>2015-07-29T10:07:40Z</time></trkpt><trkpt lat="42.940659" lon="-2.349180"><ele>1265.2</ele><time>2015-07-29T10:07:54Z</time></trkpt><trkpt lat="42.940649" lon="-2.349165"><ele>1265.7</ele><time>2015-07-29T10:07:56Z</time></trkpt><trkpt lat="42.940589" lon="-2.349094"><ele>1266.7</ele><time>2015-07-29T10:08:04Z</time></trkpt><trkpt lat="42.940563" lon="-2.349082"><ele>1266.7</ele><time>2015-07-29T10:08:16Z</time></trkpt><trkpt lat="42.940527" lon="-2.349042"><ele>1267.6</ele><time>2015-07-29T10:08:30Z</time></trkpt><trkpt lat="42.940454" lon="-2.348980"><ele>1269.6</ele><time>2015-07-29T10:08:42Z</time></trkpt><trkpt lat="42.940361" lon="-2.348939"><ele>1272.0</ele><time>2015-07-29T10:08:55Z</time></trkpt><trkpt lat="42.940263" lon="-2.348880"><ele>1274.9</ele><time>2015-07-29T10:09:10Z</time></trkpt><trkpt lat="42.940158" lon="-2.348833"><ele>1276.8</ele><time>2015-07-29T10:09:23Z</time></trkpt><trkpt lat="42.940086" lon="-2.348811"><ele>1277.7</ele><time>2015-07-29T10:09:33Z</time></trkpt><trkpt lat="42.939992" lon="-2.348776"><ele>1278.7</ele><time>2015-07-29T10:09:45Z</time></trkpt><trkpt lat="42.939945" lon="-2.348761"><ele>1280.1</ele><time>2015-07-29T10:10:00Z</time></trkpt><trkpt lat="42.939904" lon="-2.348763"><ele>1278.7</ele><time>2015-07-29T10:10:12Z</time></trkpt><trkpt lat="42.939859" lon="-2.348752"><ele>1275.3</ele><time>2015-07-29T10:10:28Z</time></trkpt><trkpt lat="42.939839" lon="-2.348741"><ele>1274.9</ele><time>2015-07-29T10:10:44Z</time></trkpt><trkpt lat="42.939834" lon="-2.348723"><ele>1275.3</ele><time>2015-07-29T10:11:00Z</time></trkpt><trkpt lat="42.939823" lon="-2.348703"><ele>1276.8</ele><time>2015-07-29T10:11:29Z</time></trkpt><trkpt lat="42.939825" lon="-2.348666"><ele>1278.2</ele><time>2015-07-29T10:11:52Z</time></trkpt><trkpt lat="42.939830" lon="-2.348624"><ele>1277.3</ele><time>2015-07-29T10:12:07Z</time></trkpt><trkpt lat="42.939853" lon="-2.348566"><ele>1275.8</ele><time>2015-07-29T10:12:19Z</time></trkpt><trkpt lat="42.939851" lon="-2.348529"><ele>1275.8</ele><time>2015-07-29T10:12:20Z</time></trkpt><trkpt lat="42.939890" lon="-2.348467"><ele>1274.9</ele><time>2015-07-29T10:12:32Z</time></trkpt><trkpt lat="42.940007" lon="-2.348367"><ele>1272.9</ele><time>2015-07-29T10:12:49Z</time></trkpt><trkpt lat="42.940108" lon="-2.348325"><ele>1270.5</ele><time>2015-07-29T10:13:04Z</time></trkpt><trkpt lat="42.940200" lon="-2.348287"><ele>1268.1</ele><time>2015-07-29T10:13:20Z</time></trkpt><trkpt lat="42.940257" lon="-2.348209"><ele>1264.8</ele><time>2015-07-29T10:13:35Z</time></trkpt><trkpt lat="42.940310" lon="-2.348174"><ele>1261.4</ele><time>2015-07-29T10:13:52Z</time></trkpt><trkpt lat="42.940354" lon="-2.348090"><ele>1257.5</ele><time>2015-07-29T10:14:05Z</time></trkpt><trkpt lat="42.940375" lon="-2.348014"><ele>1253.7</ele><time>2015-07-29T10:14:18Z</time></trkpt><trkpt lat="42.940363" lon="-2.347853"><ele>1250.8</ele><time>2015-07-29T10:14:35Z</time></trkpt><trkpt lat="42.940411" lon="-2.347793"><ele>1247.9</ele><time>2015-07-29T10:14:48Z</time></trkpt><trkpt lat="42.940430" lon="-2.347704"><ele>1246.0</ele><time>2015-07-29T10:15:00Z</time></trkpt><trkpt lat="42.940471" lon="-2.347592"><ele>1243.6</ele><time>2015-07-29T10:15:15Z</time></trkpt><trkpt lat="42.940452" lon="-2.347468"><ele>1241.7</ele><time>2015-07-29T10:15:24Z</time></trkpt><trkpt lat="42.940450" lon="-2.347354"><ele>1239.8</ele><time>2015-07-29T10:15:40Z</time></trkpt><trkpt lat="42.940475" lon="-2.347248"><ele>1236.9</ele><time>2015-07-29T10:15:54Z</time></trkpt><trkpt lat="42.940504" lon="-2.347189"><ele>1235.4</ele><time>2015-07-29T10:16:10Z</time></trkpt><trkpt lat="42.940476" lon="-2.347115"><ele>1237.4</ele><time>2015-07-29T10:16:24Z</time></trkpt><trkpt lat="42.940466" lon="-2.347077"><ele>1238.3</ele><time>2015-07-29T10:16:30Z</time></trkpt><trkpt lat="42.940415" lon="-2.346946"><ele>1238.8</ele><time>2015-07-29T10:16:46Z</time></trkpt><trkpt lat="42.940325" lon="-2.346769"><ele>1234.0</ele><time>2015-07-29T10:17:02Z</time></trkpt><trkpt lat="42.940276" lon="-2.346585"><ele>1230.6</ele><time>2015-07-29T10:17:13Z</time></trkpt><trkpt lat="42.940222" lon="-2.346399"><ele>1228.2</ele><time>2015-07-29T10:17:28Z</time></trkpt><trkpt lat="42.940153" lon="-2.346276"><ele>1224.4</ele><time>2015-07-29T10:17:40Z</time></trkpt><trkpt lat="42.940116" lon="-2.346154"><ele>1226.8</ele><time>2015-07-29T10:17:55Z</time></trkpt><trkpt lat="42.940098" lon="-2.346070"><ele>1224.9</ele><time>2015-07-29T10:18:01Z</time></trkpt><trkpt lat="42.940069" lon="-2.345856"><ele>1219.1</ele><time>2015-07-29T10:18:15Z</time></trkpt><trkpt lat="42.940018" lon="-2.345677"><ele>1215.2</ele><time>2015-07-29T10:18:28Z</time></trkpt><trkpt lat="42.939917" lon="-2.345574"><ele>1210.9</ele><time>2015-07-29T10:18:42Z</time></trkpt><trkpt lat="42.939830" lon="-2.345454"><ele>1208.5</ele><time>2015-07-29T10:18:55Z</time></trkpt><trkpt lat="42.939719" lon="-2.345284"><ele>1204.7</ele><time>2015-07-29T10:19:10Z</time></trkpt><trkpt lat="42.939714" lon="-2.345263"><ele>1204.2</ele><time>2015-07-29T10:19:11Z</time></trkpt><trkpt lat="42.939649" lon="-2.345051"><ele>1200.8</ele><time>2015-07-29T10:19:26Z</time></trkpt><trkpt lat="42.939562" lon="-2.344880"><ele>1199.9</ele><time>2015-07-29T10:19:39Z</time></trkpt><trkpt lat="42.939477" lon="-2.344779"><ele>1194.6</ele><time>2015-07-29T10:19:53Z</time></trkpt><trkpt lat="42.939323" lon="-2.344567"><ele>1193.1</ele><time>2015-07-29T10:20:10Z</time></trkpt><trkpt lat="42.939175" lon="-2.344385"><ele>1196.0</ele><time>2015-07-29T10:20:25Z</time></trkpt><trkpt lat="42.939061" lon="-2.344223"><ele>1198.4</ele><time>2015-07-29T10:20:42Z</time></trkpt><trkpt lat="42.938985" lon="-2.344116"><ele>1200.8</ele><time>2015-07-29T10:20:55Z</time></trkpt><trkpt lat="42.938925" lon="-2.343949"><ele>1203.2</ele><time>2015-07-29T10:21:11Z</time></trkpt><trkpt lat="42.938897" lon="-2.343784"><ele>1205.6</ele><time>2015-07-29T10:21:28Z</time></trkpt><trkpt lat="42.938909" lon="-2.343652"><ele>1207.6</ele><time>2015-07-29T10:21:44Z</time></trkpt><trkpt lat="42.938912" lon="-2.343555"><ele>1206.6</ele><time>2015-07-29T10:22:02Z</time></trkpt><trkpt lat="42.938886" lon="-2.343457"><ele>1205.2</ele><time>2015-07-29T10:22:16Z</time></trkpt><trkpt lat="42.938776" lon="-2.343256"><ele>1201.8</ele><time>2015-07-29T10:22:33Z</time></trkpt><trkpt lat="42.938728" lon="-2.343016"><ele>1205.6</ele><time>2015-07-29T10:22:49Z</time></trkpt><trkpt lat="42.938689" lon="-2.342874"><ele>1204.7</ele><time>2015-07-29T10:23:06Z</time></trkpt><trkpt lat="42.938644" lon="-2.342745"><ele>1205.2</ele><time>2015-07-29T10:23:20Z</time></trkpt><trkpt lat="42.938603" lon="-2.342613"><ele>1205.6</ele><time>2015-07-29T10:23:33Z</time></trkpt><trkpt lat="42.938556" lon="-2.342498"><ele>1208.0</ele><time>2015-07-29T10:23:45Z</time></trkpt><trkpt lat="42.938571" lon="-2.342408"><ele>1212.4</ele><time>2015-07-29T10:23:59Z</time></trkpt><trkpt lat="42.938629" lon="-2.342273"><ele>1214.8</ele><time>2015-07-29T10:24:19Z</time></trkpt><trkpt lat="42.938689" lon="-2.342217"><ele>1218.6</ele><time>2015-07-29T10:24:37Z</time></trkpt><trkpt lat="42.938780" lon="-2.342216"><ele>1220.1</ele><time>2015-07-29T10:24:55Z</time></trkpt><trkpt lat="42.938850" lon="-2.342161"><ele>1219.1</ele><time>2015-07-29T10:25:09Z</time></trkpt><trkpt lat="42.938932" lon="-2.342077"><ele>1220.5</ele><time>2015-07-29T10:25:24Z</time></trkpt><trkpt lat="42.938975" lon="-2.341941"><ele>1222.0</ele><time>2015-07-29T10:25:38Z</time></trkpt><trkpt lat="42.939008" lon="-2.341802"><ele>1224.9</ele><time>2015-07-29T10:25:54Z</time></trkpt><trkpt lat="42.939021" lon="-2.341666"><ele>1232.1</ele><time>2015-07-29T10:26:09Z</time></trkpt><trkpt lat="42.939015" lon="-2.341610"><ele>1234.5</ele><time>2015-07-29T10:26:26Z</time></trkpt><trkpt lat="42.939038" lon="-2.341594"><ele>1237.4</ele><time>2015-07-29T10:26:40Z</time></trkpt><trkpt lat="42.939027" lon="-2.341540"><ele>1237.4</ele><time>2015-07-29T10:26:56Z</time></trkpt><trkpt lat="42.939053" lon="-2.341497"><ele>1240.2</ele><time>2015-07-29T10:27:09Z</time></trkpt><trkpt lat="42.939122" lon="-2.341525"><ele>1238.3</ele><time>2015-07-29T10:27:22Z</time></trkpt><trkpt lat="42.939231" lon="-2.341577"><ele>1235.9</ele><time>2015-07-29T10:27:35Z</time></trkpt><trkpt lat="42.939326" lon="-2.341604"><ele>1236.4</ele><time>2015-07-29T10:27:50Z</time></trkpt><trkpt lat="42.939438" lon="-2.341659"><ele>1236.9</ele><time>2015-07-29T10:28:03Z</time></trkpt><trkpt lat="42.939521" lon="-2.341666"><ele>1237.8</ele><time>2015-07-29T10:28:16Z</time></trkpt><trkpt lat="42.939601" lon="-2.341698"><ele>1237.8</ele><time>2015-07-29T10:28:27Z</time></trkpt><trkpt lat="42.939681" lon="-2.341753"><ele>1237.4</ele><time>2015-07-29T10:28:39Z</time></trkpt><trkpt lat="42.939731" lon="-2.341760"><ele>1238.3</ele><time>2015-07-29T10:28:53Z</time></trkpt><trkpt lat="42.939803" lon="-2.341784"><ele>1242.2</ele><time>2015-07-29T10:29:06Z</time></trkpt><trkpt lat="42.939838" lon="-2.341793"><ele>1244.1</ele><time>2015-07-29T10:29:19Z</time></trkpt><trkpt lat="42.939868" lon="-2.341778"><ele>1246.0</ele><time>2015-07-29T10:29:34Z</time></trkpt><trkpt lat="42.939865" lon="-2.341741"><ele>1249.9</ele><time>2015-07-29T10:29:47Z</time></trkpt><trkpt lat="42.939888" lon="-2.341702"><ele>1252.7</ele><time>2015-07-29T10:29:59Z</time></trkpt><trkpt lat="42.939917" lon="-2.341669"><ele>1255.1</ele><time>2015-07-29T10:30:11Z</time></trkpt><trkpt lat="42.939953" lon="-2.341659"><ele>1256.6</ele><time>2015-07-29T10:30:24Z</time></trkpt><trkpt lat="42.939984" lon="-2.341624"><ele>1258.5</ele><time>2015-07-29T10:30:37Z</time></trkpt><trkpt lat="42.940001" lon="-2.341579"><ele>1260.4</ele><time>2015-07-29T10:30:49Z</time></trkpt><trkpt lat="42.940028" lon="-2.341530"><ele>1261.4</ele><time>2015-07-29T10:30:53Z</time></trkpt><trkpt lat="42.940056" lon="-2.341509"><ele>1263.3</ele><time>2015-07-29T10:31:05Z</time></trkpt><trkpt lat="42.940079" lon="-2.341467"><ele>1262.8</ele><time>2015-07-29T10:31:21Z</time></trkpt><trkpt lat="42.940109" lon="-2.341401"><ele>1263.8</ele><time>2015-07-29T10:31:36Z</time></trkpt><trkpt lat="42.940097" lon="-2.341307"><ele>1267.6</ele><time>2015-07-29T10:31:48Z</time></trkpt><trkpt lat="42.940118" lon="-2.341222"><ele>1270.0</ele><time>2015-07-29T10:32:01Z</time></trkpt><trkpt lat="42.940125" lon="-2.341120"><ele>1272.0</ele><time>2015-07-29T10:32:13Z</time></trkpt><trkpt lat="42.940100" lon="-2.341063"><ele>1274.9</ele><time>2015-07-29T10:32:27Z</time></trkpt><trkpt lat="42.940113" lon="-2.341027"><ele>1274.9</ele><time>2015-07-29T10:32:42Z</time></trkpt><trkpt lat="42.940113" lon="-2.340978"><ele>1275.3</ele><time>2015-07-29T10:32:56Z</time></trkpt><trkpt lat="42.940109" lon="-2.340934"><ele>1277.3</ele><time>2015-07-29T10:33:12Z</time></trkpt><trkpt lat="42.940122" lon="-2.340892"><ele>1279.2</ele><time>2015-07-29T10:33:38Z</time></trkpt><trkpt lat="42.940129" lon="-2.340877"><ele>1279.2</ele><time>2015-07-29T10:33:59Z</time></trkpt><trkpt lat="42.940141" lon="-2.340874"><ele>1279.7</ele><time>2015-07-29T10:34:18Z</time></trkpt><trkpt lat="42.940148" lon="-2.340883"><ele>1276.3</ele><time>2015-07-29T10:34:34Z</time></trkpt><trkpt lat="42.940152" lon="-2.340879"><ele>1274.4</ele><time>2015-07-29T10:36:29Z</time></trkpt><trkpt lat="42.940156" lon="-2.340892"><ele>1275.8</ele><time>2015-07-29T10:36:43Z</time></trkpt><trkpt lat="42.940174" lon="-2.340914"><ele>1279.7</ele><time>2015-07-29T10:37:15Z</time></trkpt><trkpt lat="42.940183" lon="-2.340956"><ele>1274.4</ele><time>2015-07-29T10:37:29Z</time></trkpt><trkpt lat="42.940188" lon="-2.341033"><ele>1273.9</ele><time>2015-07-29T10:37:41Z</time></trkpt><trkpt lat="42.940173" lon="-2.341127"><ele>1272.9</ele><time>2015-07-29T10:37:56Z</time></trkpt><trkpt lat="42.940171" lon="-2.341219"><ele>1271.5</ele><time>2015-07-29T10:38:09Z</time></trkpt><trkpt lat="42.940139" lon="-2.341260"><ele>1272.4</ele><time>2015-07-29T10:38:18Z</time></trkpt><trkpt lat="42.940118" lon="-2.341284"><ele>1270.5</ele><time>2015-07-29T10:38:34Z</time></trkpt><trkpt lat="42.940121" lon="-2.341335"><ele>1269.1</ele><time>2015-07-29T10:38:46Z</time></trkpt><trkpt lat="42.940126" lon="-2.341379"><ele>1268.6</ele><time>2015-07-29T10:38:58Z</time></trkpt><trkpt lat="42.940117" lon="-2.341447"><ele>1267.2</ele><time>2015-07-29T10:39:10Z</time></trkpt><trkpt lat="42.940070" lon="-2.341531"><ele>1265.2</ele><time>2015-07-29T10:39:24Z</time></trkpt><trkpt lat="42.940039" lon="-2.341565"><ele>1263.3</ele><time>2015-07-29T10:39:36Z</time></trkpt><trkpt lat="42.939999" lon="-2.341621"><ele>1260.9</ele><time>2015-07-29T10:39:50Z</time></trkpt><trkpt lat="42.939979" lon="-2.341671"><ele>1260.4</ele><time>2015-07-29T10:40:04Z</time></trkpt><trkpt lat="42.939938" lon="-2.341685"><ele>1258.5</ele><time>2015-07-29T10:40:18Z</time></trkpt><trkpt lat="42.939904" lon="-2.341720"><ele>1257.1</ele><time>2015-07-29T10:40:30Z</time></trkpt><trkpt lat="42.939902" lon="-2.341800"><ele>1254.2</ele><time>2015-07-29T10:40:44Z</time></trkpt><trkpt lat="42.939854" lon="-2.341813"><ele>1251.8</ele><time>2015-07-29T10:40:57Z</time></trkpt><trkpt lat="42.939796" lon="-2.341804"><ele>1250.3</ele><time>2015-07-29T10:41:09Z</time></trkpt><trkpt lat="42.939746" lon="-2.341787"><ele>1249.4</ele><time>2015-07-29T10:41:23Z</time></trkpt><trkpt lat="42.939683" lon="-2.341791"><ele>1249.4</ele><time>2015-07-29T10:41:34Z</time></trkpt><trkpt lat="42.939652" lon="-2.341774"><ele>1248.9</ele><time>2015-07-29T10:41:50Z</time></trkpt><trkpt lat="42.939626" lon="-2.341745"><ele>1248.4</ele><time>2015-07-29T10:42:03Z</time></trkpt><trkpt lat="42.939589" lon="-2.341721"><ele>1248.9</ele><time>2015-07-29T10:42:15Z</time></trkpt><trkpt lat="42.939562" lon="-2.341712"><ele>1249.4</ele><time>2015-07-29T10:42:38Z</time></trkpt><trkpt lat="42.939524" lon="-2.341696"><ele>1249.4</ele><time>2015-07-29T10:42:58Z</time></trkpt><trkpt lat="42.939502" lon="-2.341679"><ele>1248.4</ele><time>2015-07-29T10:45:05Z</time></trkpt><trkpt lat="42.939490" lon="-2.341650"><ele>1248.4</ele><time>2015-07-29T10:45:20Z</time></trkpt><trkpt lat="42.939474" lon="-2.341637"><ele>1245.5</ele><time>2015-07-29T10:45:35Z</time></trkpt><trkpt lat="42.939456" lon="-2.341621"><ele>1245.0</ele><time>2015-07-29T10:45:54Z</time></trkpt><trkpt lat="42.939416" lon="-2.341601"><ele>1246.0</ele><time>2015-07-29T10:46:08Z</time></trkpt><trkpt lat="42.939377" lon="-2.341590"><ele>1247.5</ele><time>2015-07-29T10:46:31Z</time></trkpt><trkpt lat="42.939343" lon="-2.341573"><ele>1250.3</ele><time>2015-07-29T10:46:50Z</time></trkpt><trkpt lat="42.939285" lon="-2.341564"><ele>1248.4</ele><time>2015-07-29T10:47:05Z</time></trkpt><trkpt lat="42.939226" lon="-2.341535"><ele>1243.6</ele><time>2015-07-29T10:47:23Z</time></trkpt><trkpt lat="42.939179" lon="-2.341526"><ele>1240.7</ele><time>2015-07-29T10:47:38Z</time></trkpt><trkpt lat="42.939114" lon="-2.341488"><ele>1240.2</ele><time>2015-07-29T10:47:52Z</time></trkpt><trkpt lat="42.939046" lon="-2.341451"><ele>1238.8</ele><time>2015-07-29T10:48:06Z</time></trkpt><trkpt lat="42.938993" lon="-2.341456"><ele>1236.9</ele><time>2015-07-29T10:48:21Z</time></trkpt><trkpt lat="42.938968" lon="-2.341484"><ele>1234.5</ele><time>2015-07-29T10:48:35Z</time></trkpt><trkpt lat="42.938958" lon="-2.341512"><ele>1233.0</ele><time>2015-07-29T10:48:47Z</time></trkpt><trkpt lat="42.938964" lon="-2.341595"><ele>1230.1</ele><time>2015-07-29T10:49:03Z</time></trkpt><trkpt lat="42.938953" lon="-2.341605"><ele>1229.2</ele><time>2015-07-29T10:49:18Z</time></trkpt><trkpt lat="42.938940" lon="-2.341657"><ele>1229.2</ele><time>2015-07-29T10:49:33Z</time></trkpt><trkpt lat="42.938956" lon="-2.341678"><ele>1225.3</ele><time>2015-07-29T10:49:47Z</time></trkpt><trkpt lat="42.938951" lon="-2.341798"><ele>1222.5</ele><time>2015-07-29T10:50:01Z</time></trkpt><trkpt lat="42.938924" lon="-2.341922"><ele>1218.1</ele><time>2015-07-29T10:50:16Z</time></trkpt><trkpt lat="42.938775" lon="-2.342047"><ele>1213.3</ele><time>2015-07-29T10:50:32Z</time></trkpt><trkpt lat="42.938712" lon="-2.342111"><ele>1209.0</ele><time>2015-07-29T10:50:46Z</time></trkpt><trkpt lat="42.938611" lon="-2.342193"><ele>1206.6</ele><time>2015-07-29T10:51:03Z</time></trkpt><trkpt lat="42.938541" lon="-2.342232"><ele>1208.5</ele><time>2015-07-29T10:51:17Z</time></trkpt><trkpt lat="42.938415" lon="-2.342217"><ele>1215.7</ele><time>2015-07-29T10:51:34Z</time></trkpt><trkpt lat="42.938368" lon="-2.342162"><ele>1216.7</ele><time>2015-07-29T10:51:41Z</time></trkpt><trkpt lat="42.938344" lon="-2.342140"><ele>1217.2</ele><time>2015-07-29T10:51:53Z</time></trkpt><trkpt lat="42.938323" lon="-2.342236"><ele>1219.6</ele><time>2015-07-29T10:52:05Z</time></trkpt><trkpt lat="42.938268" lon="-2.342311"><ele>1222.0</ele><time>2015-07-29T10:52:16Z</time></trkpt><trkpt lat="42.938172" lon="-2.342357"><ele>1222.5</ele><time>2015-07-29T10:52:30Z</time></trkpt><trkpt lat="42.938031" lon="-2.342378"><ele>1221.5</ele><time>2015-07-29T10:52:46Z</time></trkpt><trkpt lat="42.937908" lon="-2.342301"><ele>1220.5</ele><time>2015-07-29T10:53:04Z</time></trkpt><trkpt lat="42.937766" lon="-2.342160"><ele>1219.6</ele><time>2015-07-29T10:53:20Z</time></trkpt><trkpt lat="42.937645" lon="-2.342026"><ele>1220.5</ele><time>2015-07-29T10:53:34Z</time></trkpt><trkpt lat="42.937556" lon="-2.342024"><ele>1222.0</ele><time>2015-07-29T10:53:46Z</time></trkpt><trkpt lat="42.937454" lon="-2.341992"><ele>1221.0</ele><time>2015-07-29T10:53:59Z</time></trkpt><trkpt lat="42.937352" lon="-2.341936"><ele>1220.5</ele><time>2015-07-29T10:54:12Z</time></trkpt><trkpt lat="42.937164" lon="-2.341864"><ele>1220.1</ele><time>2015-07-29T10:54:28Z</time></trkpt><trkpt lat="42.937003" lon="-2.341815"><ele>1219.1</ele><time>2015-07-29T10:54:43Z</time></trkpt><trkpt lat="42.936927" lon="-2.341793"><ele>1221.0</ele><time>2015-07-29T10:54:50Z</time></trkpt><trkpt lat="42.936876" lon="-2.341798"><ele>1227.3</ele><time>2015-07-29T10:55:04Z</time></trkpt><trkpt lat="42.936802" lon="-2.341785"><ele>1232.1</ele><time>2015-07-29T10:55:19Z</time></trkpt><trkpt lat="42.936735" lon="-2.341796"><ele>1233.0</ele><time>2015-07-29T10:55:33Z</time></trkpt><trkpt lat="42.936669" lon="-2.341805"><ele>1235.0</ele><time>2015-07-29T10:55:46Z</time></trkpt><trkpt lat="42.936611" lon="-2.341803"><ele>1235.0</ele><time>2015-07-29T10:56:03Z</time></trkpt><trkpt lat="42.936593" lon="-2.341783"><ele>1234.0</ele><time>2015-07-29T10:56:23Z</time></trkpt><trkpt lat="42.936563" lon="-2.341792"><ele>1234.0</ele><time>2015-07-29T10:56:38Z</time></trkpt><trkpt lat="42.936534" lon="-2.341818"><ele>1234.5</ele><time>2015-07-29T10:56:53Z</time></trkpt><trkpt lat="42.936505" lon="-2.341856"><ele>1234.0</ele><time>2015-07-29T10:57:01Z</time></trkpt><trkpt lat="42.936455" lon="-2.341887"><ele>1233.5</ele><time>2015-07-29T10:57:12Z</time></trkpt><trkpt lat="42.936390" lon="-2.341873"><ele>1232.1</ele><time>2015-07-29T10:57:21Z</time></trkpt><trkpt lat="42.936322" lon="-2.341844"><ele>1228.7</ele><time>2015-07-29T10:57:39Z</time></trkpt><trkpt lat="42.936198" lon="-2.341864"><ele>1225.3</ele><time>2015-07-29T10:57:55Z</time></trkpt><trkpt lat="42.936103" lon="-2.341906"><ele>1222.0</ele><time>2015-07-29T10:58:09Z</time></trkpt><trkpt lat="42.936054" lon="-2.341886"><ele>1220.1</ele><time>2015-07-29T10:58:17Z</time></trkpt><trkpt lat="42.935996" lon="-2.342023"><ele>1218.1</ele><time>2015-07-29T10:58:30Z</time></trkpt><trkpt lat="42.935870" lon="-2.342066"><ele>1212.4</ele><time>2015-07-29T10:58:48Z</time></trkpt><trkpt lat="42.935766" lon="-2.342085"><ele>1209.0</ele><time>2015-07-29T10:59:00Z</time></trkpt><trkpt lat="42.935577" lon="-2.342130"><ele>1203.7</ele><time>2015-07-29T10:59:20Z</time></trkpt><trkpt lat="42.935454" lon="-2.342151"><ele>1200.3</ele><time>2015-07-29T10:59:36Z</time></trkpt><trkpt lat="42.935331" lon="-2.342169"><ele>1196.5</ele><time>2015-07-29T10:59:54Z</time></trkpt><trkpt lat="42.935232" lon="-2.342204"><ele>1194.1</ele><time>2015-07-29T11:00:08Z</time></trkpt><trkpt lat="42.935110" lon="-2.342244"><ele>1189.8</ele><time>2015-07-29T11:00:26Z</time></trkpt><trkpt lat="42.934998" lon="-2.342238"><ele>1187.4</ele><time>2015-07-29T11:00:42Z</time></trkpt><trkpt lat="42.934929" lon="-2.342253"><ele>1185.4</ele><time>2015-07-29T11:01:00Z</time></trkpt><trkpt lat="42.934854" lon="-2.342306"><ele>1182.1</ele><time>2015-07-29T11:01:13Z</time></trkpt><trkpt lat="42.934846" lon="-2.342306"><ele>1181.6</ele><time>2015-07-29T11:01:14Z</time></trkpt><trkpt lat="42.934726" lon="-2.342272"><ele>1178.2</ele><time>2015-07-29T11:01:28Z</time></trkpt><trkpt lat="42.934556" lon="-2.342265"><ele>1173.9</ele><time>2015-07-29T11:01:47Z</time></trkpt><trkpt lat="42.934438" lon="-2.342291"><ele>1170.5</ele><time>2015-07-29T11:02:04Z</time></trkpt><trkpt lat="42.934341" lon="-2.342321"><ele>1167.2</ele><time>2015-07-29T11:02:19Z</time></trkpt><trkpt lat="42.934192" lon="-2.342345"><ele>1162.9</ele><time>2015-07-29T11:02:38Z</time></trkpt><trkpt lat="42.934029" lon="-2.342385"><ele>1157.6</ele><time>2015-07-29T11:02:59Z</time></trkpt><trkpt lat="42.933883" lon="-2.342415"><ele>1153.2</ele><time>2015-07-29T11:03:16Z</time></trkpt><trkpt lat="42.933816" lon="-2.342442"><ele>1151.3</ele><time>2015-07-29T11:03:24Z</time></trkpt><trkpt lat="42.933642" lon="-2.342476"><ele>1148.0</ele><time>2015-07-29T11:03:43Z</time></trkpt><trkpt lat="42.933524" lon="-2.342504"><ele>1144.6</ele><time>2015-07-29T11:03:58Z</time></trkpt><trkpt lat="42.933386" lon="-2.342561"><ele>1141.7</ele><time>2015-07-29T11:04:15Z</time></trkpt><trkpt lat="42.933258" lon="-2.342588"><ele>1137.4</ele><time>2015-07-29T11:04:31Z</time></trkpt><trkpt lat="42.933133" lon="-2.342612"><ele>1133.5</ele><time>2015-07-29T11:04:48Z</time></trkpt><trkpt lat="42.933046" lon="-2.342652"><ele>1129.2</ele><time>2015-07-29T11:05:03Z</time></trkpt><trkpt lat="42.932941" lon="-2.342663"><ele>1126.3</ele><time>2015-07-29T11:05:19Z</time></trkpt><trkpt lat="42.932825" lon="-2.342681"><ele>1123.0</ele><time>2015-07-29T11:05:35Z</time></trkpt><trkpt lat="42.932672" lon="-2.342683"><ele>1119.1</ele><time>2015-07-29T11:05:52Z</time></trkpt><trkpt lat="42.932550" lon="-2.342682"><ele>1113.8</ele><time>2015-07-29T11:06:06Z</time></trkpt><trkpt lat="42.932505" lon="-2.342684"><ele>1112.9</ele><time>2015-07-29T11:06:23Z</time></trkpt><trkpt lat="42.932426" lon="-2.342675"><ele>1116.2</ele><time>2015-07-29T11:06:43Z</time></trkpt><trkpt lat="42.932374" lon="-2.342680"><ele>1115.3</ele><time>2015-07-29T11:06:58Z</time></trkpt><trkpt lat="42.932300" lon="-2.342693"><ele>1114.8</ele><time>2015-07-29T11:07:00Z</time></trkpt><trkpt lat="42.932206" lon="-2.342727"><ele>1112.4</ele><time>2015-07-29T11:07:17Z</time></trkpt><trkpt lat="42.932084" lon="-2.342922"><ele>1109.5</ele><time>2015-07-29T11:07:33Z</time></trkpt><trkpt lat="42.932033" lon="-2.343048"><ele>1107.1</ele><time>2015-07-29T11:07:49Z</time></trkpt><trkpt lat="42.931922" lon="-2.343206"><ele>1102.3</ele><time>2015-07-29T11:08:06Z</time></trkpt><trkpt lat="42.931887" lon="-2.343363"><ele>1101.8</ele><time>2015-07-29T11:08:22Z</time></trkpt><trkpt lat="42.931823" lon="-2.343732"><ele>1096.0</ele><time>2015-07-29T11:08:41Z</time></trkpt><trkpt lat="42.931751" lon="-2.343920"><ele>1089.3</ele><time>2015-07-29T11:08:57Z</time></trkpt><trkpt lat="42.931710" lon="-2.344026"><ele>1084.5</ele><time>2015-07-29T11:09:07Z</time></trkpt><trkpt lat="42.931630" lon="-2.344265"><ele>1082.1</ele><time>2015-07-29T11:09:23Z</time></trkpt><trkpt lat="42.931526" lon="-2.344436"><ele>1080.7</ele><time>2015-07-29T11:09:36Z</time></trkpt><trkpt lat="42.931419" lon="-2.344573"><ele>1080.2</ele><time>2015-07-29T11:09:48Z</time></trkpt><trkpt lat="42.931191" lon="-2.344691"><ele>1082.1</ele><time>2015-07-29T11:10:07Z</time></trkpt><trkpt lat="42.931034" lon="-2.344754"><ele>1082.6</ele><time>2015-07-29T11:10:22Z</time></trkpt><trkpt lat="42.930926" lon="-2.344803"><ele>1079.2</ele><time>2015-07-29T11:10:33Z</time></trkpt><trkpt lat="42.930821" lon="-2.344834"><ele>1078.7</ele><time>2015-07-29T11:10:36Z</time></trkpt><trkpt lat="42.930682" lon="-2.344909"><ele>1071.5</ele><time>2015-07-29T11:10:56Z</time></trkpt><trkpt lat="42.930464" lon="-2.345010"><ele>1068.6</ele><time>2015-07-29T11:11:15Z</time></trkpt><trkpt lat="42.930302" lon="-2.345059"><ele>1066.7</ele><time>2015-07-29T11:11:28Z</time></trkpt><trkpt lat="42.930192" lon="-2.345132"><ele>1065.3</ele><time>2015-07-29T11:11:37Z</time></trkpt><trkpt lat="42.930012" lon="-2.345233"><ele>1062.4</ele><time>2015-07-29T11:11:55Z</time></trkpt><trkpt lat="42.929959" lon="-2.345280"><ele>1062.4</ele><time>2015-07-29T11:12:00Z</time></trkpt><trkpt lat="42.929892" lon="-2.345309"><ele>1062.9</ele><time>2015-07-29T11:12:05Z</time></trkpt><trkpt lat="42.929863" lon="-2.345336"><ele>1063.4</ele><time>2015-07-29T11:12:08Z</time></trkpt><trkpt lat="42.929684" lon="-2.345436"><ele>1061.9</ele><time>2015-07-29T11:12:26Z</time></trkpt><trkpt lat="42.929552" lon="-2.345565"><ele>1056.2</ele><time>2015-07-29T11:12:42Z</time></trkpt><trkpt lat="42.929413" lon="-2.345648"><ele>1049.4</ele><time>2015-07-29T11:12:58Z</time></trkpt><trkpt lat="42.929246" lon="-2.345741"><ele>1042.2</ele><time>2015-07-29T11:13:14Z</time></trkpt><trkpt lat="42.929061" lon="-2.345801"><ele>1036.0</ele><time>2015-07-29T11:13:32Z</time></trkpt><trkpt lat="42.928921" lon="-2.345775"><ele>1029.2</ele><time>2015-07-29T11:13:49Z</time></trkpt><trkpt lat="42.928804" lon="-2.345724"><ele>1023.5</ele><time>2015-07-29T11:14:04Z</time></trkpt><trkpt lat="42.928697" lon="-2.345671"><ele>1021.1</ele><time>2015-07-29T11:14:16Z</time></trkpt><trkpt lat="42.928635" lon="-2.345647"><ele>1020.6</ele><time>2015-07-29T11:14:22Z</time></trkpt><trkpt lat="42.928505" lon="-2.345539"><ele>1019.1</ele><time>2015-07-29T11:14:37Z</time></trkpt><trkpt lat="42.928457" lon="-2.345444"><ele>1017.2</ele><time>2015-07-29T11:14:46Z</time></trkpt><trkpt lat="42.928354" lon="-2.345294"><ele>1013.9</ele><time>2015-07-29T11:15:02Z</time></trkpt><trkpt lat="42.928263" lon="-2.345200"><ele>1010.0</ele><time>2015-07-29T11:15:19Z</time></trkpt><trkpt lat="42.928158" lon="-2.345101"><ele>1008.6</ele><time>2015-07-29T11:15:34Z</time></trkpt><trkpt lat="42.928121" lon="-2.345094"><ele>1007.6</ele><time>2015-07-29T11:15:37Z</time></trkpt><trkpt lat="42.928073" lon="-2.345113"><ele>1004.7</ele><time>2015-07-29T11:15:42Z</time></trkpt><trkpt lat="42.927983" lon="-2.345255"><ele>1002.3</ele><time>2015-07-29T11:15:57Z</time></trkpt><trkpt lat="42.927876" lon="-2.345440"><ele>1000.4</ele><time>2015-07-29T11:16:14Z</time></trkpt><trkpt lat="42.927802" lon="-2.345532"><ele>998.0</ele><time>2015-07-29T11:16:23Z</time></trkpt><trkpt lat="42.927660" lon="-2.345691"><ele>992.2</ele><time>2015-07-29T11:16:40Z</time></trkpt><trkpt lat="42.927555" lon="-2.345843"><ele>986.5</ele><time>2015-07-29T11:16:54Z</time></trkpt><trkpt lat="42.927445" lon="-2.345956"><ele>981.2</ele><time>2015-07-29T11:17:08Z</time></trkpt><trkpt lat="42.927362" lon="-2.346090"><ele>974.4</ele><time>2015-07-29T11:17:23Z</time></trkpt><trkpt lat="42.927268" lon="-2.346261"><ele>971.6</ele><time>2015-07-29T11:17:36Z</time></trkpt><trkpt lat="42.927126" lon="-2.346381"><ele>969.2</ele><time>2015-07-29T11:17:50Z</time></trkpt><trkpt lat="42.927044" lon="-2.346460"><ele>968.2</ele><time>2015-07-29T11:17:59Z</time></trkpt><trkpt lat="42.926899" lon="-2.346605"><ele>966.3</ele><time>2015-07-29T11:18:16Z</time></trkpt><trkpt lat="42.926775" lon="-2.346725"><ele>963.4</ele><time>2015-07-29T11:18:30Z</time></trkpt><trkpt lat="42.926699" lon="-2.346876"><ele>959.5</ele><time>2015-07-29T11:18:45Z</time></trkpt><trkpt lat="42.926671" lon="-2.347087"><ele>961.0</ele><time>2015-07-29T11:19:01Z</time></trkpt><trkpt lat="42.926658" lon="-2.347192"><ele>959.1</ele><time>2015-07-29T11:19:09Z</time></trkpt><trkpt lat="42.926662" lon="-2.347412"><ele>956.7</ele><time>2015-07-29T11:19:23Z</time></trkpt><trkpt lat="42.926719" lon="-2.347614"><ele>948.0</ele><time>2015-07-29T11:19:41Z</time></trkpt><trkpt lat="42.926800" lon="-2.347747"><ele>941.8</ele><time>2015-07-29T11:19:57Z</time></trkpt><trkpt lat="42.926902" lon="-2.347923"><ele>938.9</ele><time>2015-07-29T11:20:12Z</time></trkpt><trkpt lat="42.927013" lon="-2.348085"><ele>936.0</ele><time>2015-07-29T11:20:29Z</time></trkpt><trkpt lat="42.927035" lon="-2.348258"><ele>936.9</ele><time>2015-07-29T11:20:46Z</time></trkpt><trkpt lat="42.927029" lon="-2.348371"><ele>935.5</ele><time>2015-07-29T11:21:05Z</time></trkpt><trkpt lat="42.927017" lon="-2.348471"><ele>934.1</ele><time>2015-07-29T11:21:22Z</time></trkpt><trkpt lat="42.926929" lon="-2.348527"><ele>932.6</ele><time>2015-07-29T11:21:38Z</time></trkpt><trkpt lat="42.926810" lon="-2.348607"><ele>930.7</ele><time>2015-07-29T11:21:53Z</time></trkpt><trkpt lat="42.926652" lon="-2.348631"><ele>927.8</ele><time>2015-07-29T11:22:10Z</time></trkpt><trkpt lat="42.926537" lon="-2.348699"><ele>924.0</ele><time>2015-07-29T11:22:24Z</time></trkpt><trkpt lat="42.926456" lon="-2.348819"><ele>922.0</ele><time>2015-07-29T11:22:39Z</time></trkpt><trkpt lat="42.926509" lon="-2.349042"><ele>920.1</ele><time>2015-07-29T11:22:57Z</time></trkpt><trkpt lat="42.926599" lon="-2.349172"><ele>914.4</ele><time>2015-07-29T11:23:13Z</time></trkpt><trkpt lat="42.926684" lon="-2.349249"><ele>911.5</ele><time>2015-07-29T11:23:26Z</time></trkpt><trkpt lat="42.926783" lon="-2.349344"><ele>908.6</ele><time>2015-07-29T11:23:40Z</time></trkpt><trkpt lat="42.926916" lon="-2.349446"><ele>905.7</ele><time>2015-07-29T11:23:55Z</time></trkpt><trkpt lat="42.927050" lon="-2.349562"><ele>903.3</ele><time>2015-07-29T11:24:10Z</time></trkpt><trkpt lat="42.927191" lon="-2.349672"><ele>900.9</ele><time>2015-07-29T11:24:25Z</time></trkpt><trkpt lat="42.927258" lon="-2.349824"><ele>899.0</ele><time>2015-07-29T11:24:42Z</time></trkpt><trkpt lat="42.927221" lon="-2.349909"><ele>898.5</ele><time>2015-07-29T11:24:54Z</time></trkpt><trkpt lat="42.927114" lon="-2.349936"><ele>895.6</ele><time>2015-07-29T11:25:07Z</time></trkpt><trkpt lat="42.926975" lon="-2.349999"><ele>892.2</ele><time>2015-07-29T11:25:23Z</time></trkpt><trkpt lat="42.926868" lon="-2.350101"><ele>888.9</ele><time>2015-07-29T11:25:38Z</time></trkpt><trkpt lat="42.926764" lon="-2.350217"><ele>886.5</ele><time>2015-07-29T11:25:54Z</time></trkpt><trkpt lat="42.926676" lon="-2.350334"><ele>883.6</ele><time>2015-07-29T11:26:10Z</time></trkpt><trkpt lat="42.926611" lon="-2.350467"><ele>882.2</ele><time>2015-07-29T11:26:24Z</time></trkpt><trkpt lat="42.926500" lon="-2.350617"><ele>878.8</ele><time>2015-07-29T11:26:42Z</time></trkpt><trkpt lat="42.926397" lon="-2.350711"><ele>875.9</ele><time>2015-07-29T11:26:56Z</time></trkpt><trkpt lat="42.926318" lon="-2.350761"><ele>873.5</ele><time>2015-07-29T11:27:05Z</time></trkpt><trkpt lat="42.926171" lon="-2.350808"><ele>872.1</ele><time>2015-07-29T11:27:20Z</time></trkpt><trkpt lat="42.926005" lon="-2.350816"><ele>870.1</ele><time>2015-07-29T11:27:35Z</time></trkpt><trkpt lat="42.925835" lon="-2.350800"><ele>867.7</ele><time>2015-07-29T11:27:51Z</time></trkpt><trkpt lat="42.925803" lon="-2.350803"><ele>867.7</ele><time>2015-07-29T11:27:54Z</time></trkpt><trkpt lat="42.925603" lon="-2.350848"><ele>866.8</ele><time>2015-07-29T11:28:11Z</time></trkpt><trkpt lat="42.925537" lon="-2.350835"><ele>865.8</ele><time>2015-07-29T11:28:17Z</time></trkpt><trkpt lat="42.925362" lon="-2.350777"><ele>864.8</ele><time>2015-07-29T11:28:33Z</time></trkpt><trkpt lat="42.925259" lon="-2.350800"><ele>865.3</ele><time>2015-07-29T11:28:48Z</time></trkpt><trkpt lat="42.925128" lon="-2.350783"><ele>862.9</ele><time>2015-07-29T11:29:03Z</time></trkpt><trkpt lat="42.925003" lon="-2.350750"><ele>858.6</ele><time>2015-07-29T11:29:17Z</time></trkpt><trkpt lat="42.924919" lon="-2.350744"><ele>857.6</ele><time>2015-07-29T11:29:31Z</time></trkpt><trkpt lat="42.924807" lon="-2.350708"><ele>856.7</ele><time>2015-07-29T11:29:45Z</time></trkpt><trkpt lat="42.924704" lon="-2.350589"><ele>854.8</ele><time>2015-07-29T11:30:01Z</time></trkpt><trkpt lat="42.924591" lon="-2.350520"><ele>852.4</ele><time>2015-07-29T11:30:15Z</time></trkpt><trkpt lat="42.924526" lon="-2.350505"><ele>851.9</ele><time>2015-07-29T11:30:31Z</time></trkpt><trkpt lat="42.924490" lon="-2.350514"><ele>847.5</ele><time>2015-07-29T11:30:51Z</time></trkpt><trkpt lat="42.924444" lon="-2.350521"><ele>844.7</ele><time>2015-07-29T11:31:06Z</time></trkpt><trkpt lat="42.924402" lon="-2.350495"><ele>841.8</ele><time>2015-07-29T11:31:22Z</time></trkpt><trkpt lat="42.924369" lon="-2.350506"><ele>843.7</ele><time>2015-07-29T11:31:42Z</time></trkpt><trkpt lat="42.924311" lon="-2.350503"><ele>838.9</ele><time>2015-07-29T11:31:56Z</time></trkpt><trkpt lat="42.924260" lon="-2.350542"><ele>835.5</ele><time>2015-07-29T11:32:15Z</time></trkpt><trkpt lat="42.924228" lon="-2.350709"><ele>833.1</ele><time>2015-07-29T11:32:28Z</time></trkpt><trkpt lat="42.924209" lon="-2.350889"><ele>830.2</ele><time>2015-07-29T11:32:41Z</time></trkpt><trkpt lat="42.924196" lon="-2.351058"><ele>827.8</ele><time>2015-07-29T11:32:54Z</time></trkpt><trkpt lat="42.924152" lon="-2.351179"><ele>825.4</ele><time>2015-07-29T11:33:08Z</time></trkpt><trkpt lat="42.924088" lon="-2.351249"><ele>823.5</ele><time>2015-07-29T11:33:21Z</time></trkpt><trkpt lat="42.924008" lon="-2.351321"><ele>822.1</ele><time>2015-07-29T11:33:35Z</time></trkpt><trkpt lat="42.923982" lon="-2.351348"><ele>818.7</ele><time>2015-07-29T11:33:49Z</time></trkpt><trkpt lat="42.923891" lon="-2.351434"><ele>815.8</ele><time>2015-07-29T11:34:04Z</time></trkpt><trkpt lat="42.923768" lon="-2.351558"><ele>811.5</ele><time>2015-07-29T11:34:17Z</time></trkpt><trkpt lat="42.923746" lon="-2.351601"><ele>810.5</ele><time>2015-07-29T11:34:20Z</time></trkpt><trkpt lat="42.923596" lon="-2.351835"><ele>806.7</ele><time>2015-07-29T11:34:39Z</time></trkpt><trkpt lat="42.923503" lon="-2.351970"><ele>806.2</ele><time>2015-07-29T11:34:54Z</time></trkpt><trkpt lat="42.923447" lon="-2.352065"><ele>804.8</ele><time>2015-07-29T11:35:03Z</time></trkpt><trkpt lat="42.923421" lon="-2.352087"><ele>801.9</ele><time>2015-07-29T11:35:15Z</time></trkpt><trkpt lat="42.923375" lon="-2.352101"><ele>797.6</ele><time>2015-07-29T11:35:31Z</time></trkpt><trkpt lat="42.923318" lon="-2.352114"><ele>794.7</ele><time>2015-07-29T11:35:48Z</time></trkpt><trkpt lat="42.923251" lon="-2.352123"><ele>794.2</ele><time>2015-07-29T11:36:03Z</time></trkpt><trkpt lat="42.923188" lon="-2.352159"><ele>796.1</ele><time>2015-07-29T11:36:18Z</time></trkpt><trkpt lat="42.923152" lon="-2.352178"><ele>796.6</ele><time>2015-07-29T11:36:32Z</time></trkpt><trkpt lat="42.923102" lon="-2.352191"><ele>797.1</ele><time>2015-07-29T11:36:48Z</time></trkpt><trkpt lat="42.923044" lon="-2.352200"><ele>797.6</ele><time>2015-07-29T11:37:05Z</time></trkpt><trkpt lat="42.922995" lon="-2.352233"><ele>796.6</ele><time>2015-07-29T11:37:17Z</time></trkpt><trkpt lat="42.922899" lon="-2.352288"><ele>794.2</ele><time>2015-07-29T11:37:27Z</time></trkpt><trkpt lat="42.922768" lon="-2.352323"><ele>793.2</ele><time>2015-07-29T11:37:41Z</time></trkpt><trkpt lat="42.922653" lon="-2.352385"><ele>792.7</ele><time>2015-07-29T11:37:52Z</time></trkpt><trkpt lat="42.922536" lon="-2.352551"><ele>789.9</ele><time>2015-07-29T11:38:06Z</time></trkpt><trkpt lat="42.922408" lon="-2.352718"><ele>786.5</ele><time>2015-07-29T11:38:20Z</time></trkpt><trkpt lat="42.922380" lon="-2.352749"><ele>786.0</ele><time>2015-07-29T11:38:23Z</time></trkpt><trkpt lat="42.922353" lon="-2.352800"><ele>783.1</ele><time>2015-07-29T11:38:35Z</time></trkpt><trkpt lat="42.922313" lon="-2.352862"><ele>783.6</ele><time>2015-07-29T11:38:49Z</time></trkpt><trkpt lat="42.922287" lon="-2.352875"><ele>782.2</ele><time>2015-07-29T11:39:05Z</time></trkpt><trkpt lat="42.922252" lon="-2.352910"><ele>783.6</ele><time>2015-07-29T11:39:16Z</time></trkpt><trkpt lat="42.922211" lon="-2.352965"><ele>786.5</ele><time>2015-07-29T11:39:30Z</time></trkpt><trkpt lat="42.922157" lon="-2.353014"><ele>790.8</ele><time>2015-07-29T11:39:44Z</time></trkpt><trkpt lat="42.922114" lon="-2.353046"><ele>787.9</ele><time>2015-07-29T11:40:00Z</time></trkpt><trkpt lat="42.922070" lon="-2.353081"><ele>787.0</ele><time>2015-07-29T11:40:05Z</time></trkpt><trkpt lat="42.921981" lon="-2.353142"><ele>781.7</ele><time>2015-07-29T11:40:19Z</time></trkpt><trkpt lat="42.921889" lon="-2.353217"><ele>779.8</ele><time>2015-07-29T11:40:23Z</time></trkpt><trkpt lat="42.921805" lon="-2.353297"><ele>774.5</ele><time>2015-07-29T11:40:37Z</time></trkpt><trkpt lat="42.921728" lon="-2.353386"><ele>774.0</ele><time>2015-07-29T11:40:38Z</time></trkpt><trkpt lat="42.921591" lon="-2.353495"><ele>770.6</ele><time>2015-07-29T11:40:54Z</time></trkpt><trkpt lat="42.921548" lon="-2.353562"><ele>768.7</ele><time>2015-07-29T11:41:01Z</time></trkpt><trkpt lat="42.921403" lon="-2.353739"><ele>764.9</ele><time>2015-07-29T11:41:17Z</time></trkpt><trkpt lat="42.921269" lon="-2.353900"><ele>757.7</ele><time>2015-07-29T11:41:33Z</time></trkpt><trkpt lat="42.921238" lon="-2.353936"><ele>756.2</ele><time>2015-07-29T11:41:36Z</time></trkpt><trkpt lat="42.921132" lon="-2.354063"><ele>759.1</ele><time>2015-07-29T11:41:51Z</time></trkpt><trkpt lat="42.921039" lon="-2.354136"><ele>759.1</ele><time>2015-07-29T11:41:52Z</time></trkpt><trkpt lat="42.920929" lon="-2.354220"><ele>759.1</ele><time>2015-07-29T11:42:06Z</time></trkpt><trkpt lat="42.920894" lon="-2.354248"><ele>758.6</ele><time>2015-07-29T11:42:09Z</time></trkpt><trkpt lat="42.920720" lon="-2.354424"><ele>756.7</ele><time>2015-07-29T11:42:25Z</time></trkpt><trkpt lat="42.920590" lon="-2.354517"><ele>758.6</ele><time>2015-07-29T11:42:37Z</time></trkpt><trkpt lat="42.920399" lon="-2.354573"><ele>761.0</ele><time>2015-07-29T11:42:53Z</time></trkpt><trkpt lat="42.920274" lon="-2.354600"><ele>764.9</ele><time>2015-07-29T11:43:04Z</time></trkpt><trkpt lat="42.920059" lon="-2.354684"><ele>766.8</ele><time>2015-07-29T11:43:20Z</time></trkpt><trkpt lat="42.919979" lon="-2.354688"><ele>769.7</ele><time>2015-07-29T11:43:30Z</time></trkpt><trkpt lat="42.919906" lon="-2.354701"><ele>770.2</ele><time>2015-07-29T11:43:32Z</time></trkpt><trkpt lat="42.919723" lon="-2.354681"><ele>770.2</ele><time>2015-07-29T11:43:48Z</time></trkpt><trkpt lat="42.919576" lon="-2.354680"><ele>768.2</ele><time>2015-07-29T11:44:01Z</time></trkpt><trkpt lat="42.919398" lon="-2.354689"><ele>766.8</ele><time>2015-07-29T11:44:15Z</time></trkpt><trkpt lat="42.919312" lon="-2.354709"><ele>762.9</ele><time>2015-07-29T11:44:31Z</time></trkpt><trkpt lat="42.919188" lon="-2.354720"><ele>762.5</ele><time>2015-07-29T11:44:33Z</time></trkpt><trkpt lat="42.919095" lon="-2.354721"><ele>759.1</ele><time>2015-07-29T11:44:49Z</time></trkpt><trkpt lat="42.918995" lon="-2.354697"><ele>758.6</ele><time>2015-07-29T11:44:51Z</time></trkpt><trkpt lat="42.918823" lon="-2.354708"><ele>752.9</ele><time>2015-07-29T11:45:07Z</time></trkpt><trkpt lat="42.918646" lon="-2.354720"><ele>747.6</ele><time>2015-07-29T11:45:22Z</time></trkpt><trkpt lat="42.918479" lon="-2.354698"><ele>742.8</ele><time>2015-07-29T11:45:37Z</time></trkpt><trkpt lat="42.918426" lon="-2.354679"><ele>741.3</ele><time>2015-07-29T11:45:42Z</time></trkpt><trkpt lat="42.918284" lon="-2.354621"><ele>737.5</ele><time>2015-07-29T11:45:57Z</time></trkpt><trkpt lat="42.918194" lon="-2.354537"><ele>734.6</ele><time>2015-07-29T11:46:08Z</time></trkpt><trkpt lat="42.918124" lon="-2.354463"><ele>733.1</ele><time>2015-07-29T11:46:23Z</time></trkpt><trkpt lat="42.918012" lon="-2.354427"><ele>728.8</ele><time>2015-07-29T11:46:38Z</time></trkpt><trkpt lat="42.917933" lon="-2.354369"><ele>726.4</ele><time>2015-07-29T11:46:50Z</time></trkpt><trkpt lat="42.917817" lon="-2.354360"><ele>722.6</ele><time>2015-07-29T11:47:05Z</time></trkpt><trkpt lat="42.917700" lon="-2.354344"><ele>721.1</ele><time>2015-07-29T11:47:20Z</time></trkpt><trkpt lat="42.917578" lon="-2.354351"><ele>721.1</ele><time>2015-07-29T11:47:35Z</time></trkpt><trkpt lat="42.917421" lon="-2.354287"><ele>723.1</ele><time>2015-07-29T11:47:51Z</time></trkpt><trkpt lat="42.917358" lon="-2.354340"><ele>720.7</ele><time>2015-07-29T11:48:03Z</time></trkpt><trkpt lat="42.917251" lon="-2.354369"><ele>718.2</ele><time>2015-07-29T11:48:17Z</time></trkpt><trkpt lat="42.917146" lon="-2.354407"><ele>716.3</ele><time>2015-07-29T11:48:30Z</time></trkpt><trkpt lat="42.917017" lon="-2.354488"><ele>712.5</ele><time>2015-07-29T11:48:47Z</time></trkpt><trkpt lat="42.916919" lon="-2.354540"><ele>711.0</ele><time>2015-07-29T11:49:00Z</time></trkpt><trkpt lat="42.916833" lon="-2.354609"><ele>710.1</ele><time>2015-07-29T11:49:12Z</time></trkpt><trkpt lat="42.916698" lon="-2.354669"><ele>710.1</ele><time>2015-07-29T11:49:28Z</time></trkpt><trkpt lat="42.916661" lon="-2.354751"><ele>707.7</ele><time>2015-07-29T11:49:42Z</time></trkpt><trkpt lat="42.916605" lon="-2.354811"><ele>707.2</ele><time>2015-07-29T11:49:54Z</time></trkpt><trkpt lat="42.916598" lon="-2.354815"><ele>709.1</ele><time>2015-07-29T11:50:06Z</time></trkpt><trkpt lat="42.916580" lon="-2.354847"><ele>711.5</ele><time>2015-07-29T11:50:23Z</time></trkpt><trkpt lat="42.916538" lon="-2.354871"><ele>711.5</ele><time>2015-07-29T11:50:39Z</time></trkpt><trkpt lat="42.916484" lon="-2.354885"><ele>710.6</ele><time>2015-07-29T11:50:47Z</time></trkpt><trkpt lat="42.916373" lon="-2.354888"><ele>709.6</ele><time>2015-07-29T11:50:57Z</time></trkpt><trkpt lat="42.916226" lon="-2.354931"><ele>706.2</ele><time>2015-07-29T11:51:11Z</time></trkpt><trkpt lat="42.916055" lon="-2.355049"><ele>702.9</ele><time>2015-07-29T11:51:28Z</time></trkpt><trkpt lat="42.915950" lon="-2.355095"><ele>700.5</ele><time>2015-07-29T11:51:39Z</time></trkpt><trkpt lat="42.915826" lon="-2.355215"><ele>700.0</ele><time>2015-07-29T11:51:52Z</time></trkpt><trkpt lat="42.915617" lon="-2.355376"><ele>700.0</ele><time>2015-07-29T11:52:10Z</time></trkpt><trkpt lat="42.915402" lon="-2.355517"><ele>697.1</ele><time>2015-07-29T11:52:27Z</time></trkpt><trkpt lat="42.915252" lon="-2.355635"><ele>692.8</ele><time>2015-07-29T11:52:40Z</time></trkpt><trkpt lat="42.915214" lon="-2.355662"><ele>692.8</ele><time>2015-07-29T11:52:43Z</time></trkpt><trkpt lat="42.915078" lon="-2.355795"><ele>691.8</ele><time>2015-07-29T11:52:56Z</time></trkpt><trkpt lat="42.914964" lon="-2.355945"><ele>690.4</ele><time>2015-07-29T11:53:10Z</time></trkpt><trkpt lat="42.914863" lon="-2.356168"><ele>686.5</ele><time>2015-07-29T11:53:25Z</time></trkpt><trkpt lat="42.914769" lon="-2.356424"><ele>683.2</ele><time>2015-07-29T11:53:41Z</time></trkpt><trkpt lat="42.914687" lon="-2.356646"><ele>681.2</ele><time>2015-07-29T11:53:53Z</time></trkpt><trkpt lat="42.914677" lon="-2.356681"><ele>680.3</ele><time>2015-07-29T11:53:55Z</time></trkpt><trkpt lat="42.914624" lon="-2.356815"><ele>677.9</ele><time>2015-07-29T11:54:05Z</time></trkpt><trkpt lat="42.914609" lon="-2.356856"><ele>676.9</ele><time>2015-07-29T11:54:08Z</time></trkpt><trkpt lat="42.914536" lon="-2.357015"><ele>673.5</ele><time>2015-07-29T11:54:20Z</time></trkpt><trkpt lat="42.914466" lon="-2.357293"><ele>674.0</ele><time>2015-07-29T11:54:35Z</time></trkpt><trkpt lat="42.914388" lon="-2.357545"><ele>669.2</ele><time>2015-07-29T11:54:51Z</time></trkpt><trkpt lat="42.914331" lon="-2.357696"><ele>666.8</ele><time>2015-07-29T11:55:00Z</time></trkpt><trkpt lat="42.914269" lon="-2.357913"><ele>663.5</ele><time>2015-07-29T11:55:14Z</time></trkpt><trkpt lat="42.914247" lon="-2.358057"><ele>663.0</ele><time>2015-07-29T11:55:22Z</time></trkpt><trkpt lat="42.914109" lon="-2.358251"><ele>665.9</ele><time>2015-07-29T11:55:39Z</time></trkpt><trkpt lat="42.914001" lon="-2.358453"><ele>671.1</ele><time>2015-07-29T11:55:57Z</time></trkpt><trkpt lat="42.913920" lon="-2.358580"><ele>674.0</ele><time>2015-07-29T11:56:07Z</time></trkpt><trkpt lat="42.913909" lon="-2.358620"><ele>674.0</ele><time>2015-07-29T11:56:10Z</time></trkpt><trkpt lat="42.913855" lon="-2.358722"><ele>673.1</ele><time>2015-07-29T11:56:19Z</time></trkpt><trkpt lat="42.913748" lon="-2.358990"><ele>675.0</ele><time>2015-07-29T11:56:39Z</time></trkpt><trkpt lat="42.913671" lon="-2.359192"><ele>676.9</ele><time>2015-07-29T11:56:54Z</time></trkpt><trkpt lat="42.913527" lon="-2.359343"><ele>676.9</ele><time>2015-07-29T11:57:11Z</time></trkpt><trkpt lat="42.913365" lon="-2.359433"><ele>673.5</ele><time>2015-07-29T11:57:27Z</time></trkpt><trkpt lat="42.913145" lon="-2.359536"><ele>672.6</ele><time>2015-07-29T11:57:46Z</time></trkpt><trkpt lat="42.912957" lon="-2.359543"><ele>672.1</ele><time>2015-07-29T11:58:02Z</time></trkpt><trkpt lat="42.912834" lon="-2.359526"><ele>671.6</ele><time>2015-07-29T11:58:13Z</time></trkpt><trkpt lat="42.912692" lon="-2.359467"><ele>668.7</ele><time>2015-07-29T11:58:27Z</time></trkpt><trkpt lat="42.912658" lon="-2.359468"><ele>668.3</ele><time>2015-07-29T11:58:30Z</time></trkpt><trkpt lat="42.912503" lon="-2.359520"><ele>668.7</ele><time>2015-07-29T11:58:44Z</time></trkpt><trkpt lat="42.912345" lon="-2.359565"><ele>669.2</ele><time>2015-07-29T11:58:58Z</time></trkpt><trkpt lat="42.912102" lon="-2.359617"><ele>667.8</ele><time>2015-07-29T11:59:17Z</time></trkpt><trkpt lat="42.911865" lon="-2.359656"><ele>667.8</ele><time>2015-07-29T11:59:37Z</time></trkpt><trkpt lat="42.911697" lon="-2.359715"><ele>668.3</ele><time>2015-07-29T11:59:52Z</time></trkpt><trkpt lat="42.911585" lon="-2.359776"><ele>669.2</ele><time>2015-07-29T12:00:04Z</time></trkpt><trkpt lat="42.911390" lon="-2.359907"><ele>666.3</ele><time>2015-07-29T12:00:22Z</time></trkpt><trkpt lat="42.911274" lon="-2.359955"><ele>665.9</ele><time>2015-07-29T12:00:34Z</time></trkpt><trkpt lat="42.911087" lon="-2.360021"><ele>665.9</ele><time>2015-07-29T12:00:52Z</time></trkpt><trkpt lat="42.910985" lon="-2.360050"><ele>664.4</ele><time>2015-07-29T12:01:02Z</time></trkpt><trkpt lat="42.910761" lon="-2.360029"><ele>659.6</ele><time>2015-07-29T12:01:21Z</time></trkpt><trkpt lat="42.910675" lon="-2.360013"><ele>657.7</ele><time>2015-07-29T12:01:29Z</time></trkpt><trkpt lat="42.910536" lon="-2.359984"><ele>656.2</ele><time>2015-07-29T12:01:46Z</time></trkpt><trkpt lat="42.910476" lon="-2.360026"><ele>654.8</ele><time>2015-07-29T12:01:57Z</time></trkpt><trkpt lat="42.910416" lon="-2.360034"><ele>655.8</ele><time>2015-07-29T12:02:13Z</time></trkpt><trkpt lat="42.910159" lon="-2.359960"><ele>654.8</ele><time>2015-07-29T12:02:32Z</time></trkpt><trkpt lat="42.909951" lon="-2.359907"><ele>653.8</ele><time>2015-07-29T12:02:48Z</time></trkpt><trkpt lat="42.909701" lon="-2.359895"><ele>654.8</ele><time>2015-07-29T12:03:06Z</time></trkpt><trkpt lat="42.909437" lon="-2.359902"><ele>657.2</ele><time>2015-07-29T12:03:27Z</time></trkpt><trkpt lat="42.909213" lon="-2.359912"><ele>661.5</ele><time>2015-07-29T12:03:45Z</time></trkpt><trkpt lat="42.909024" lon="-2.359950"><ele>661.5</ele><time>2015-07-29T12:04:00Z</time></trkpt><trkpt lat="42.908814" lon="-2.360116"><ele>662.0</ele><time>2015-07-29T12:04:19Z</time></trkpt><trkpt lat="42.908623" lon="-2.360278"><ele>662.0</ele><time>2015-07-29T12:04:37Z</time></trkpt><trkpt lat="42.908437" lon="-2.360443"><ele>662.5</ele><time>2015-07-29T12:04:55Z</time></trkpt><trkpt lat="42.908238" lon="-2.360602"><ele>662.0</ele><time>2015-07-29T12:05:14Z</time></trkpt><trkpt lat="42.908045" lon="-2.360746"><ele>662.0</ele><time>2015-07-29T12:05:32Z</time></trkpt><trkpt lat="42.907802" lon="-2.360876"><ele>663.0</ele><time>2015-07-29T12:05:53Z</time></trkpt><trkpt lat="42.907719" lon="-2.360914"><ele>663.9</ele><time>2015-07-29T12:06:00Z</time></trkpt><trkpt lat="42.907682" lon="-2.360952"><ele>664.4</ele><time>2015-07-29T12:06:04Z</time></trkpt><trkpt lat="42.907480" lon="-2.361068"><ele>666.8</ele><time>2015-07-29T12:06:22Z</time></trkpt><trkpt lat="42.907309" lon="-2.361280"><ele>666.8</ele><time>2015-07-29T12:06:42Z</time></trkpt><trkpt lat="42.907238" lon="-2.361525"><ele>667.8</ele><time>2015-07-29T12:06:58Z</time></trkpt><trkpt lat="42.907166" lon="-2.361834"><ele>670.2</ele><time>2015-07-29T12:07:17Z</time></trkpt><trkpt lat="42.907064" lon="-2.362071"><ele>668.7</ele><time>2015-07-29T12:07:34Z</time></trkpt><trkpt lat="42.906995" lon="-2.362168"><ele>667.3</ele><time>2015-07-29T12:07:43Z</time></trkpt><trkpt lat="42.906850" lon="-2.362346"><ele>664.9</ele><time>2015-07-29T12:07:59Z</time></trkpt><trkpt lat="42.906829" lon="-2.362364"><ele>664.9</ele><time>2015-07-29T12:08:01Z</time></trkpt><trkpt lat="42.906714" lon="-2.362544"><ele>667.3</ele><time>2015-07-29T12:08:16Z</time></trkpt><trkpt lat="42.906664" lon="-2.362669"><ele>671.6</ele><time>2015-07-29T12:08:30Z</time></trkpt><trkpt lat="42.906574" lon="-2.362966"><ele>672.6</ele><time>2015-07-29T12:08:49Z</time></trkpt><trkpt lat="42.906565" lon="-2.363007"><ele>672.1</ele><time>2015-07-29T12:09:03Z</time></trkpt><trkpt lat="42.906534" lon="-2.363047"><ele>671.6</ele><time>2015-07-29T12:09:22Z</time></trkpt><trkpt lat="42.906507" lon="-2.363083"><ele>671.6</ele><time>2015-07-29T12:09:28Z</time></trkpt><trkpt lat="42.906455" lon="-2.363127"><ele>671.6</ele><time>2015-07-29T12:09:42Z</time></trkpt><trkpt lat="42.906380" lon="-2.363156"><ele>672.6</ele><time>2015-07-29T12:09:57Z</time></trkpt></trkseg></trk></gpx>